<?xml version="1.0" encoding="UTF-8" standalone="no" ?>
<gpx xmlns="http://www.topografix.com/GPX/1/1" xmlns:xsi="http://www.w3.org/2001/XMLSchema-instance" xsi:schemaLocation="http://www.topografix.com/GPX/1/1 http://www.topografix.com/GPX/1/1/gpx.xsd" version="1.1" creator="VisuGPX - https://www.visugpx.com">
  <metadata>
    <name>2022-07-02 17:16:38</name>
  </metadata>
  <trk>
    <name><![CDATA[2022-07-02 17:16:38]]></name>
    <trkseg>
      <trkpt lat="43.57127" lon="3.91558">
        <ele>3.83</ele>
        <time>2022-07-02T14:09:40Z</time>
      </trkpt>
      <trkpt lat="43.57113" lon="3.91544">
        <ele>5.34</ele>
        <time>2022-07-02T14:09:53Z</time>
      </trkpt>
      <trkpt lat="43.57115" lon="3.91545">
        <ele>5.25</ele>
        <time>2022-07-02T14:10:01Z</time>
      </trkpt>
      <trkpt lat="43.57108" lon="3.91553">
        <ele>5.11</ele>
        <time>2022-07-02T14:10:05Z</time>
      </trkpt>
      <trkpt lat="43.571" lon="3.91553">
        <ele>4.81</ele>
        <time>2022-07-02T14:10:08Z</time>
      </trkpt>
      <trkpt lat="43.57092" lon="3.9155">
        <ele>4.6</ele>
        <time>2022-07-02T14:10:13Z</time>
      </trkpt>
      <trkpt lat="43.57091" lon="3.91551">
        <ele>4.69</ele>
        <time>2022-07-02T14:10:14Z</time>
      </trkpt>
      <trkpt lat="43.5709" lon="3.91555">
        <ele>4.79</ele>
        <time>2022-07-02T14:10:21Z</time>
      </trkpt>
      <trkpt lat="43.57089" lon="3.91561">
        <ele>4.58</ele>
        <time>2022-07-02T14:10:28Z</time>
      </trkpt>
      <trkpt lat="43.57089" lon="3.91565">
        <ele>4.57</ele>
        <time>2022-07-02T14:10:29Z</time>
      </trkpt>
      <trkpt lat="43.5709" lon="3.91568">
        <ele>4.55</ele>
        <time>2022-07-02T14:10:30Z</time>
      </trkpt>
      <trkpt lat="43.57092" lon="3.91572">
        <ele>4.49</ele>
        <time>2022-07-02T14:10:31Z</time>
      </trkpt>
      <trkpt lat="43.57093" lon="3.91576">
        <ele>4.46</ele>
        <time>2022-07-02T14:10:32Z</time>
      </trkpt>
      <trkpt lat="43.57094" lon="3.9158">
        <ele>4.45</ele>
        <time>2022-07-02T14:10:33Z</time>
      </trkpt>
      <trkpt lat="43.57095" lon="3.91584">
        <ele>4.4</ele>
        <time>2022-07-02T14:10:34Z</time>
      </trkpt>
      <trkpt lat="43.57096" lon="3.91588">
        <ele>4.37</ele>
        <time>2022-07-02T14:10:35Z</time>
      </trkpt>
      <trkpt lat="43.57096" lon="3.91592">
        <ele>4.36</ele>
        <time>2022-07-02T14:10:36Z</time>
      </trkpt>
      <trkpt lat="43.57097" lon="3.91597">
        <ele>4.32</ele>
        <time>2022-07-02T14:10:37Z</time>
      </trkpt>
      <trkpt lat="43.57098" lon="3.91602">
        <ele>4.28</ele>
        <time>2022-07-02T14:10:38Z</time>
      </trkpt>
      <trkpt lat="43.571" lon="3.91637">
        <ele>4.11</ele>
        <time>2022-07-02T14:10:44Z</time>
      </trkpt>
      <trkpt lat="43.57097" lon="3.91649">
        <ele>4.12</ele>
        <time>2022-07-02T14:10:46Z</time>
      </trkpt>
      <trkpt lat="43.5709" lon="3.91672">
        <ele>4.24</ele>
        <time>2022-07-02T14:10:50Z</time>
      </trkpt>
      <trkpt lat="43.57084" lon="3.91682">
        <ele>4.26</ele>
        <time>2022-07-02T14:10:51Z</time>
      </trkpt>
      <trkpt lat="43.5708" lon="3.91685">
        <ele>4.26</ele>
        <time>2022-07-02T14:10:52Z</time>
      </trkpt>
      <trkpt lat="43.57076" lon="3.91687">
        <ele>4.19</ele>
        <time>2022-07-02T14:10:53Z</time>
      </trkpt>
      <trkpt lat="43.57071" lon="3.91687">
        <ele>4.08</ele>
        <time>2022-07-02T14:10:54Z</time>
      </trkpt>
      <trkpt lat="43.57066" lon="3.91687">
        <ele>3.97</ele>
        <time>2022-07-02T14:10:55Z</time>
      </trkpt>
      <trkpt lat="43.57061" lon="3.91687">
        <ele>3.9</ele>
        <time>2022-07-02T14:10:56Z</time>
      </trkpt>
      <trkpt lat="43.57057" lon="3.91688">
        <ele>3.78</ele>
        <time>2022-07-02T14:10:57Z</time>
      </trkpt>
      <trkpt lat="43.57015" lon="3.91692">
        <ele>3.39</ele>
        <time>2022-07-02T14:11:06Z</time>
      </trkpt>
      <trkpt lat="43.56997" lon="3.91694">
        <ele>3.63</ele>
        <time>2022-07-02T14:11:11Z</time>
      </trkpt>
      <trkpt lat="43.56994" lon="3.91696">
        <ele>3.64</ele>
        <time>2022-07-02T14:11:12Z</time>
      </trkpt>
      <trkpt lat="43.56994" lon="3.91702">
        <ele>3.65</ele>
        <time>2022-07-02T14:11:13Z</time>
      </trkpt>
      <trkpt lat="43.56991" lon="3.91728">
        <ele>4.3</ele>
        <time>2022-07-02T14:11:19Z</time>
      </trkpt>
      <trkpt lat="43.56985" lon="3.91742">
        <ele>4.63</ele>
        <time>2022-07-02T14:11:23Z</time>
      </trkpt>
      <trkpt lat="43.56994" lon="3.91743">
        <ele>4.83</ele>
        <time>2022-07-02T14:11:27Z</time>
      </trkpt>
      <trkpt lat="43.57009" lon="3.91743">
        <ele>4.91</ele>
        <time>2022-07-02T14:11:31Z</time>
      </trkpt>
      <trkpt lat="43.57057" lon="3.91739">
        <ele>4.36</ele>
        <time>2022-07-02T14:11:41Z</time>
      </trkpt>
      <trkpt lat="43.57128" lon="3.91737">
        <ele>4.56</ele>
        <time>2022-07-02T14:11:55Z</time>
      </trkpt>
      <trkpt lat="43.57183" lon="3.91734">
        <ele>4.69</ele>
        <time>2022-07-02T14:12:06Z</time>
      </trkpt>
      <trkpt lat="43.57196" lon="3.91734">
        <ele>4.66</ele>
        <time>2022-07-02T14:12:09Z</time>
      </trkpt>
      <trkpt lat="43.57199" lon="3.91737">
        <ele>4.6</ele>
        <time>2022-07-02T14:12:10Z</time>
      </trkpt>
      <trkpt lat="43.57203" lon="3.91742">
        <ele>4.62</ele>
        <time>2022-07-02T14:12:11Z</time>
      </trkpt>
      <trkpt lat="43.57204" lon="3.91748">
        <ele>4.59</ele>
        <time>2022-07-02T14:12:12Z</time>
      </trkpt>
      <trkpt lat="43.57205" lon="3.91754">
        <ele>4.6</ele>
        <time>2022-07-02T14:12:13Z</time>
      </trkpt>
      <trkpt lat="43.57207" lon="3.9176">
        <ele>4.67</ele>
        <time>2022-07-02T14:12:14Z</time>
      </trkpt>
      <trkpt lat="43.57209" lon="3.91765">
        <ele>4.73</ele>
        <time>2022-07-02T14:12:15Z</time>
      </trkpt>
      <trkpt lat="43.5721" lon="3.91771">
        <ele>4.75</ele>
        <time>2022-07-02T14:12:16Z</time>
      </trkpt>
      <trkpt lat="43.57217" lon="3.91795">
        <ele>4.8</ele>
        <time>2022-07-02T14:12:20Z</time>
      </trkpt>
      <trkpt lat="43.57236" lon="3.91856">
        <ele>4.97</ele>
        <time>2022-07-02T14:12:30Z</time>
      </trkpt>
      <trkpt lat="43.57238" lon="3.91859">
        <ele>5.24</ele>
        <time>2022-07-02T14:12:31Z</time>
      </trkpt>
      <trkpt lat="43.57241" lon="3.91862">
        <ele>5.34</ele>
        <time>2022-07-02T14:12:32Z</time>
      </trkpt>
      <trkpt lat="43.57244" lon="3.91862">
        <ele>5.47</ele>
        <time>2022-07-02T14:12:33Z</time>
      </trkpt>
      <trkpt lat="43.57246" lon="3.9186">
        <ele>5.69</ele>
        <time>2022-07-02T14:12:34Z</time>
      </trkpt>
      <trkpt lat="43.57249" lon="3.91857">
        <ele>5.96</ele>
        <time>2022-07-02T14:12:35Z</time>
      </trkpt>
      <trkpt lat="43.57252" lon="3.91854">
        <ele>6.29</ele>
        <time>2022-07-02T14:12:36Z</time>
      </trkpt>
      <trkpt lat="43.57258" lon="3.91845">
        <ele>6.74</ele>
        <time>2022-07-02T14:12:38Z</time>
      </trkpt>
      <trkpt lat="43.5726" lon="3.91841">
        <ele>6.89</ele>
        <time>2022-07-02T14:12:39Z</time>
      </trkpt>
      <trkpt lat="43.57263" lon="3.91841">
        <ele>6.97</ele>
        <time>2022-07-02T14:12:40Z</time>
      </trkpt>
      <trkpt lat="43.57266" lon="3.91845">
        <ele>7.03</ele>
        <time>2022-07-02T14:12:41Z</time>
      </trkpt>
      <trkpt lat="43.57267" lon="3.9185">
        <ele>7.1</ele>
        <time>2022-07-02T14:12:42Z</time>
      </trkpt>
      <trkpt lat="43.57268" lon="3.91856">
        <ele>7.15</ele>
        <time>2022-07-02T14:12:43Z</time>
      </trkpt>
      <trkpt lat="43.57281" lon="3.91885">
        <ele>7.36</ele>
        <time>2022-07-02T14:12:49Z</time>
      </trkpt>
      <trkpt lat="43.57285" lon="3.91889">
        <ele>7.41</ele>
        <time>2022-07-02T14:12:50Z</time>
      </trkpt>
      <trkpt lat="43.57289" lon="3.91892">
        <ele>7.47</ele>
        <time>2022-07-02T14:12:51Z</time>
      </trkpt>
      <trkpt lat="43.57298" lon="3.91898">
        <ele>7.54</ele>
        <time>2022-07-02T14:12:53Z</time>
      </trkpt>
      <trkpt lat="43.57309" lon="3.91909">
        <ele>7.62</ele>
        <time>2022-07-02T14:12:56Z</time>
      </trkpt>
      <trkpt lat="43.57314" lon="3.9191">
        <ele>7.64</ele>
        <time>2022-07-02T14:12:57Z</time>
      </trkpt>
      <trkpt lat="43.57318" lon="3.9191">
        <ele>7.64</ele>
        <time>2022-07-02T14:12:58Z</time>
      </trkpt>
      <trkpt lat="43.57331" lon="3.91903">
        <ele>7.66</ele>
        <time>2022-07-02T14:13:01Z</time>
      </trkpt>
      <trkpt lat="43.57383" lon="3.91854">
        <ele>7.21</ele>
        <time>2022-07-02T14:13:14Z</time>
      </trkpt>
      <trkpt lat="43.57428" lon="3.91807">
        <ele>7.27</ele>
        <time>2022-07-02T14:13:26Z</time>
      </trkpt>
      <trkpt lat="43.57476" lon="3.91765">
        <ele>7.69</ele>
        <time>2022-07-02T14:13:38Z</time>
      </trkpt>
      <trkpt lat="43.57498" lon="3.91758">
        <ele>7.9</ele>
        <time>2022-07-02T14:13:43Z</time>
      </trkpt>
      <trkpt lat="43.57547" lon="3.91765">
        <ele>7.8</ele>
        <time>2022-07-02T14:13:53Z</time>
      </trkpt>
      <trkpt lat="43.57594" lon="3.91757">
        <ele>7.8</ele>
        <time>2022-07-02T14:14:02Z</time>
      </trkpt>
      <trkpt lat="43.57661" lon="3.91733">
        <ele>7.8</ele>
        <time>2022-07-02T14:14:15Z</time>
      </trkpt>
      <trkpt lat="43.57726" lon="3.91705">
        <ele>7.92</ele>
        <time>2022-07-02T14:14:28Z</time>
      </trkpt>
      <trkpt lat="43.57796" lon="3.91672">
        <ele>8.61</ele>
        <time>2022-07-02T14:14:43Z</time>
      </trkpt>
      <trkpt lat="43.57853" lon="3.91642">
        <ele>8.21</ele>
        <time>2022-07-02T14:14:56Z</time>
      </trkpt>
      <trkpt lat="43.57867" lon="3.91613">
        <ele>8.05</ele>
        <time>2022-07-02T14:15:03Z</time>
      </trkpt>
      <trkpt lat="43.57879" lon="3.91602">
        <ele>8.33</ele>
        <time>2022-07-02T14:15:07Z</time>
      </trkpt>
      <trkpt lat="43.57884" lon="3.91602">
        <ele>8.36</ele>
        <time>2022-07-02T14:15:08Z</time>
      </trkpt>
      <trkpt lat="43.57888" lon="3.91602">
        <ele>8.51</ele>
        <time>2022-07-02T14:15:09Z</time>
      </trkpt>
      <trkpt lat="43.57897" lon="3.91606">
        <ele>8.57</ele>
        <time>2022-07-02T14:15:11Z</time>
      </trkpt>
      <trkpt lat="43.57916" lon="3.91612">
        <ele>8.86</ele>
        <time>2022-07-02T14:15:15Z</time>
      </trkpt>
      <trkpt lat="43.57921" lon="3.91612">
        <ele>8.88</ele>
        <time>2022-07-02T14:15:16Z</time>
      </trkpt>
      <trkpt lat="43.57931" lon="3.91612">
        <ele>8.94</ele>
        <time>2022-07-02T14:15:18Z</time>
      </trkpt>
      <trkpt lat="43.57935" lon="3.91615">
        <ele>8.98</ele>
        <time>2022-07-02T14:15:19Z</time>
      </trkpt>
      <trkpt lat="43.57939" lon="3.91616">
        <ele>9.04</ele>
        <time>2022-07-02T14:15:20Z</time>
      </trkpt>
      <trkpt lat="43.57943" lon="3.91616">
        <ele>9.02</ele>
        <time>2022-07-02T14:15:21Z</time>
      </trkpt>
      <trkpt lat="43.57948" lon="3.91616">
        <ele>9.09</ele>
        <time>2022-07-02T14:15:22Z</time>
      </trkpt>
      <trkpt lat="43.57953" lon="3.91616">
        <ele>9.08</ele>
        <time>2022-07-02T14:15:23Z</time>
      </trkpt>
      <trkpt lat="43.58027" lon="3.91615">
        <ele>8.66</ele>
        <time>2022-07-02T14:15:38Z</time>
      </trkpt>
      <trkpt lat="43.58095" lon="3.91608">
        <ele>9.32</ele>
        <time>2022-07-02T14:15:52Z</time>
      </trkpt>
      <trkpt lat="43.5816" lon="3.91599">
        <ele>9.12</ele>
        <time>2022-07-02T14:16:05Z</time>
      </trkpt>
      <trkpt lat="43.58175" lon="3.91599">
        <ele>9.17</ele>
        <time>2022-07-02T14:16:08Z</time>
      </trkpt>
      <trkpt lat="43.58179" lon="3.91601">
        <ele>9.2</ele>
        <time>2022-07-02T14:16:09Z</time>
      </trkpt>
      <trkpt lat="43.58183" lon="3.91604">
        <ele>9.2</ele>
        <time>2022-07-02T14:16:10Z</time>
      </trkpt>
      <trkpt lat="43.58187" lon="3.91608">
        <ele>9.19</ele>
        <time>2022-07-02T14:16:11Z</time>
      </trkpt>
      <trkpt lat="43.58191" lon="3.91613">
        <ele>9.1</ele>
        <time>2022-07-02T14:16:12Z</time>
      </trkpt>
      <trkpt lat="43.58194" lon="3.91618">
        <ele>9.05</ele>
        <time>2022-07-02T14:16:13Z</time>
      </trkpt>
      <trkpt lat="43.58196" lon="3.91624">
        <ele>8.97</ele>
        <time>2022-07-02T14:16:14Z</time>
      </trkpt>
      <trkpt lat="43.58216" lon="3.91666">
        <ele>9.16</ele>
        <time>2022-07-02T14:16:21Z</time>
      </trkpt>
      <trkpt lat="43.5822" lon="3.9167">
        <ele>9.21</ele>
        <time>2022-07-02T14:16:22Z</time>
      </trkpt>
      <trkpt lat="43.58224" lon="3.91675">
        <ele>9.24</ele>
        <time>2022-07-02T14:16:23Z</time>
      </trkpt>
      <trkpt lat="43.58228" lon="3.91678">
        <ele>9.31</ele>
        <time>2022-07-02T14:16:24Z</time>
      </trkpt>
      <trkpt lat="43.58233" lon="3.9168">
        <ele>9.37</ele>
        <time>2022-07-02T14:16:25Z</time>
      </trkpt>
      <trkpt lat="43.58237" lon="3.91681">
        <ele>9.61</ele>
        <time>2022-07-02T14:16:26Z</time>
      </trkpt>
      <trkpt lat="43.58242" lon="3.91681">
        <ele>9.61</ele>
        <time>2022-07-02T14:16:27Z</time>
      </trkpt>
      <trkpt lat="43.58246" lon="3.91679">
        <ele>9.94</ele>
        <time>2022-07-02T14:16:28Z</time>
      </trkpt>
      <trkpt lat="43.58251" lon="3.91677">
        <ele>10.06</ele>
        <time>2022-07-02T14:16:29Z</time>
      </trkpt>
      <trkpt lat="43.58256" lon="3.91675">
        <ele>10.13</ele>
        <time>2022-07-02T14:16:30Z</time>
      </trkpt>
      <trkpt lat="43.58261" lon="3.91677">
        <ele>10.12</ele>
        <time>2022-07-02T14:16:31Z</time>
      </trkpt>
      <trkpt lat="43.58309" lon="3.91694">
        <ele>9.75</ele>
        <time>2022-07-02T14:16:40Z</time>
      </trkpt>
      <trkpt lat="43.58346" lon="3.91707">
        <ele>9.52</ele>
        <time>2022-07-02T14:16:46Z</time>
      </trkpt>
      <trkpt lat="43.58352" lon="3.91711">
        <ele>9.36</ele>
        <time>2022-07-02T14:16:47Z</time>
      </trkpt>
      <trkpt lat="43.58406" lon="3.91755">
        <ele>8.26</ele>
        <time>2022-07-02T14:16:56Z</time>
      </trkpt>
      <trkpt lat="43.58474" lon="3.9181">
        <ele>8.28</ele>
        <time>2022-07-02T14:17:08Z</time>
      </trkpt>
      <trkpt lat="43.58492" lon="3.91836">
        <ele>8.22</ele>
        <time>2022-07-02T14:17:12Z</time>
      </trkpt>
      <trkpt lat="43.58521" lon="3.91865">
        <ele>8.98</ele>
        <time>2022-07-02T14:17:19Z</time>
      </trkpt>
      <trkpt lat="43.58545" lon="3.91884">
        <ele>10.94</ele>
        <time>2022-07-02T14:17:26Z</time>
      </trkpt>
      <trkpt lat="43.58569" lon="3.91902">
        <ele>11.65</ele>
        <time>2022-07-02T14:17:33Z</time>
      </trkpt>
      <trkpt lat="43.58571" lon="3.91907">
        <ele>11.71</ele>
        <time>2022-07-02T14:17:34Z</time>
      </trkpt>
      <trkpt lat="43.58573" lon="3.91911">
        <ele>11.75</ele>
        <time>2022-07-02T14:17:35Z</time>
      </trkpt>
      <trkpt lat="43.58572" lon="3.91916">
        <ele>11.72</ele>
        <time>2022-07-02T14:17:36Z</time>
      </trkpt>
      <trkpt lat="43.58569" lon="3.91921">
        <ele>11.77</ele>
        <time>2022-07-02T14:17:37Z</time>
      </trkpt>
      <trkpt lat="43.58566" lon="3.91926">
        <ele>11.81</ele>
        <time>2022-07-02T14:17:38Z</time>
      </trkpt>
      <trkpt lat="43.58564" lon="3.91931">
        <ele>11.89</ele>
        <time>2022-07-02T14:17:39Z</time>
      </trkpt>
      <trkpt lat="43.58544" lon="3.91981">
        <ele>11.55</ele>
        <time>2022-07-02T14:17:50Z</time>
      </trkpt>
      <trkpt lat="43.58545" lon="3.91984">
        <ele>11.63</ele>
        <time>2022-07-02T14:17:51Z</time>
      </trkpt>
      <trkpt lat="43.58546" lon="3.91986">
        <ele>11.76</ele>
        <time>2022-07-02T14:17:53Z</time>
      </trkpt>
      <trkpt lat="43.58548" lon="3.91986">
        <ele>11.85</ele>
        <time>2022-07-02T14:17:54Z</time>
      </trkpt>
      <trkpt lat="43.5855" lon="3.91988">
        <ele>11.96</ele>
        <time>2022-07-02T14:17:55Z</time>
      </trkpt>
      <trkpt lat="43.58552" lon="3.9199">
        <ele>12.09</ele>
        <time>2022-07-02T14:17:56Z</time>
      </trkpt>
      <trkpt lat="43.58555" lon="3.91992">
        <ele>12.25</ele>
        <time>2022-07-02T14:17:57Z</time>
      </trkpt>
      <trkpt lat="43.58557" lon="3.91994">
        <ele>12.41</ele>
        <time>2022-07-02T14:17:58Z</time>
      </trkpt>
      <trkpt lat="43.58575" lon="3.92005">
        <ele>12.92</ele>
        <time>2022-07-02T14:18:03Z</time>
      </trkpt>
      <trkpt lat="43.58579" lon="3.92006">
        <ele>12.92</ele>
        <time>2022-07-02T14:18:04Z</time>
      </trkpt>
      <trkpt lat="43.58583" lon="3.92004">
        <ele>12.96</ele>
        <time>2022-07-02T14:18:05Z</time>
      </trkpt>
      <trkpt lat="43.58587" lon="3.92003">
        <ele>12.96</ele>
        <time>2022-07-02T14:18:06Z</time>
      </trkpt>
      <trkpt lat="43.58591" lon="3.92001">
        <ele>12.98</ele>
        <time>2022-07-02T14:18:07Z</time>
      </trkpt>
      <trkpt lat="43.58609" lon="3.9199">
        <ele>13.1</ele>
        <time>2022-07-02T14:18:12Z</time>
      </trkpt>
      <trkpt lat="43.58613" lon="3.9199">
        <ele>13.13</ele>
        <time>2022-07-02T14:18:13Z</time>
      </trkpt>
      <trkpt lat="43.58617" lon="3.91988">
        <ele>13.2</ele>
        <time>2022-07-02T14:18:14Z</time>
      </trkpt>
      <trkpt lat="43.58621" lon="3.91986">
        <ele>13.29</ele>
        <time>2022-07-02T14:18:15Z</time>
      </trkpt>
      <trkpt lat="43.58625" lon="3.91984">
        <ele>13.39</ele>
        <time>2022-07-02T14:18:16Z</time>
      </trkpt>
      <trkpt lat="43.58655" lon="3.91975">
        <ele>13.56</ele>
        <time>2022-07-02T14:18:24Z</time>
      </trkpt>
      <trkpt lat="43.58657" lon="3.91978">
        <ele>13.6</ele>
        <time>2022-07-02T14:18:25Z</time>
      </trkpt>
      <trkpt lat="43.5866" lon="3.9198">
        <ele>13.69</ele>
        <time>2022-07-02T14:18:26Z</time>
      </trkpt>
      <trkpt lat="43.58662" lon="3.91982">
        <ele>13.73</ele>
        <time>2022-07-02T14:18:27Z</time>
      </trkpt>
      <trkpt lat="43.58666" lon="3.91982">
        <ele>13.77</ele>
        <time>2022-07-02T14:18:28Z</time>
      </trkpt>
      <trkpt lat="43.5867" lon="3.91982">
        <ele>13.73</ele>
        <time>2022-07-02T14:18:29Z</time>
      </trkpt>
      <trkpt lat="43.58674" lon="3.9198">
        <ele>13.64</ele>
        <time>2022-07-02T14:18:30Z</time>
      </trkpt>
      <trkpt lat="43.58677" lon="3.91976">
        <ele>13.57</ele>
        <time>2022-07-02T14:18:31Z</time>
      </trkpt>
      <trkpt lat="43.5868" lon="3.91972">
        <ele>13.53</ele>
        <time>2022-07-02T14:18:32Z</time>
      </trkpt>
      <trkpt lat="43.58685" lon="3.91969">
        <ele>13.52</ele>
        <time>2022-07-02T14:18:33Z</time>
      </trkpt>
      <trkpt lat="43.5869" lon="3.91967">
        <ele>13.52</ele>
        <time>2022-07-02T14:18:34Z</time>
      </trkpt>
      <trkpt lat="43.58745" lon="3.91973">
        <ele>13.31</ele>
        <time>2022-07-02T14:18:45Z</time>
      </trkpt>
      <trkpt lat="43.58755" lon="3.91974">
        <ele>13.26</ele>
        <time>2022-07-02T14:18:47Z</time>
      </trkpt>
      <trkpt lat="43.5876" lon="3.91975">
        <ele>13.26</ele>
        <time>2022-07-02T14:18:48Z</time>
      </trkpt>
      <trkpt lat="43.58764" lon="3.91976">
        <ele>13.26</ele>
        <time>2022-07-02T14:18:49Z</time>
      </trkpt>
      <trkpt lat="43.58808" lon="3.91972">
        <ele>13.2</ele>
        <time>2022-07-02T14:18:58Z</time>
      </trkpt>
      <trkpt lat="43.58847" lon="3.91963">
        <ele>13.52</ele>
        <time>2022-07-02T14:19:07Z</time>
      </trkpt>
      <trkpt lat="43.5889" lon="3.91953">
        <ele>13.71</ele>
        <time>2022-07-02T14:19:17Z</time>
      </trkpt>
      <trkpt lat="43.58934" lon="3.91938">
        <ele>13.48</ele>
        <time>2022-07-02T14:19:27Z</time>
      </trkpt>
      <trkpt lat="43.58947" lon="3.91933">
        <ele>13.42</ele>
        <time>2022-07-02T14:19:32Z</time>
      </trkpt>
      <trkpt lat="43.58949" lon="3.91934">
        <ele>13.45</ele>
        <time>2022-07-02T14:19:33Z</time>
      </trkpt>
      <trkpt lat="43.58951" lon="3.91937">
        <ele>13.52</ele>
        <time>2022-07-02T14:19:34Z</time>
      </trkpt>
      <trkpt lat="43.5895" lon="3.9194">
        <ele>13.55</ele>
        <time>2022-07-02T14:19:35Z</time>
      </trkpt>
      <trkpt lat="43.58951" lon="3.91944">
        <ele>13.62</ele>
        <time>2022-07-02T14:19:36Z</time>
      </trkpt>
      <trkpt lat="43.58952" lon="3.91948">
        <ele>13.7</ele>
        <time>2022-07-02T14:19:37Z</time>
      </trkpt>
      <trkpt lat="43.58954" lon="3.91952">
        <ele>13.74</ele>
        <time>2022-07-02T14:19:38Z</time>
      </trkpt>
      <trkpt lat="43.5897" lon="3.91995">
        <ele>13.24</ele>
        <time>2022-07-02T14:19:46Z</time>
      </trkpt>
      <trkpt lat="43.58992" lon="3.92048">
        <ele>13.27</ele>
        <time>2022-07-02T14:19:56Z</time>
      </trkpt>
      <trkpt lat="43.59003" lon="3.92065">
        <ele>13.64</ele>
        <time>2022-07-02T14:20:00Z</time>
      </trkpt>
      <trkpt lat="43.59007" lon="3.92068">
        <ele>13.66</ele>
        <time>2022-07-02T14:20:01Z</time>
      </trkpt>
      <trkpt lat="43.5901" lon="3.92071">
        <ele>13.74</ele>
        <time>2022-07-02T14:20:02Z</time>
      </trkpt>
      <trkpt lat="43.59035" lon="3.92095">
        <ele>14.57</ele>
        <time>2022-07-02T14:20:10Z</time>
      </trkpt>
      <trkpt lat="43.59055" lon="3.92114">
        <ele>15.33</ele>
        <time>2022-07-02T14:20:16Z</time>
      </trkpt>
      <trkpt lat="43.59073" lon="3.92131">
        <ele>15.86</ele>
        <time>2022-07-02T14:20:22Z</time>
      </trkpt>
      <trkpt lat="43.59099" lon="3.92152">
        <ele>16.4</ele>
        <time>2022-07-02T14:20:30Z</time>
      </trkpt>
      <trkpt lat="43.59119" lon="3.92171">
        <ele>17.08</ele>
        <time>2022-07-02T14:20:37Z</time>
      </trkpt>
      <trkpt lat="43.59119" lon="3.92176">
        <ele>17.17</ele>
        <time>2022-07-02T14:20:38Z</time>
      </trkpt>
      <trkpt lat="43.59118" lon="3.9218">
        <ele>17.26</ele>
        <time>2022-07-02T14:20:39Z</time>
      </trkpt>
      <trkpt lat="43.59117" lon="3.92185">
        <ele>17.29</ele>
        <time>2022-07-02T14:20:40Z</time>
      </trkpt>
      <trkpt lat="43.59116" lon="3.9219">
        <ele>17.34</ele>
        <time>2022-07-02T14:20:41Z</time>
      </trkpt>
      <trkpt lat="43.59115" lon="3.9223">
        <ele>17.54</ele>
        <time>2022-07-02T14:20:48Z</time>
      </trkpt>
      <trkpt lat="43.59127" lon="3.92279">
        <ele>17.39</ele>
        <time>2022-07-02T14:20:57Z</time>
      </trkpt>
      <trkpt lat="43.59134" lon="3.92294">
        <ele>17.54</ele>
        <time>2022-07-02T14:21:00Z</time>
      </trkpt>
      <trkpt lat="43.59148" lon="3.92322">
        <ele>17.95</ele>
        <time>2022-07-02T14:21:07Z</time>
      </trkpt>
      <trkpt lat="43.59152" lon="3.92319">
        <ele>18.09</ele>
        <time>2022-07-02T14:21:08Z</time>
      </trkpt>
      <trkpt lat="43.59155" lon="3.92317">
        <ele>18.21</ele>
        <time>2022-07-02T14:21:09Z</time>
      </trkpt>
      <trkpt lat="43.59158" lon="3.9232">
        <ele>18.28</ele>
        <time>2022-07-02T14:21:10Z</time>
      </trkpt>
      <trkpt lat="43.59159" lon="3.92324">
        <ele>18.34</ele>
        <time>2022-07-02T14:21:11Z</time>
      </trkpt>
      <trkpt lat="43.5916" lon="3.92329">
        <ele>18.37</ele>
        <time>2022-07-02T14:21:12Z</time>
      </trkpt>
      <trkpt lat="43.59163" lon="3.92331">
        <ele>18.41</ele>
        <time>2022-07-02T14:21:13Z</time>
      </trkpt>
      <trkpt lat="43.59165" lon="3.92333">
        <ele>18.41</ele>
        <time>2022-07-02T14:21:14Z</time>
      </trkpt>
      <trkpt lat="43.59169" lon="3.92335">
        <ele>18.48</ele>
        <time>2022-07-02T14:21:15Z</time>
      </trkpt>
      <trkpt lat="43.592" lon="3.92354">
        <ele>19.67</ele>
        <time>2022-07-02T14:21:24Z</time>
      </trkpt>
      <trkpt lat="43.59246" lon="3.92385">
        <ele>20.99</ele>
        <time>2022-07-02T14:21:37Z</time>
      </trkpt>
      <trkpt lat="43.59273" lon="3.92404">
        <ele>22.24</ele>
        <time>2022-07-02T14:21:46Z</time>
      </trkpt>
      <trkpt lat="43.59311" lon="3.9243">
        <ele>22.94</ele>
        <time>2022-07-02T14:21:57Z</time>
      </trkpt>
      <trkpt lat="43.59323" lon="3.92438">
        <ele>22.58</ele>
        <time>2022-07-02T14:22:00Z</time>
      </trkpt>
      <trkpt lat="43.59344" lon="3.92453">
        <ele>22.27</ele>
        <time>2022-07-02T14:22:06Z</time>
      </trkpt>
      <trkpt lat="43.59352" lon="3.92458">
        <ele>22.26</ele>
        <time>2022-07-02T14:22:08Z</time>
      </trkpt>
      <trkpt lat="43.59355" lon="3.92462">
        <ele>22.17</ele>
        <time>2022-07-02T14:22:09Z</time>
      </trkpt>
      <trkpt lat="43.59358" lon="3.92467">
        <ele>22.14</ele>
        <time>2022-07-02T14:22:10Z</time>
      </trkpt>
      <trkpt lat="43.5936" lon="3.92473">
        <ele>22.08</ele>
        <time>2022-07-02T14:22:11Z</time>
      </trkpt>
      <trkpt lat="43.59363" lon="3.92478">
        <ele>22.02</ele>
        <time>2022-07-02T14:22:12Z</time>
      </trkpt>
      <trkpt lat="43.59393" lon="3.92539">
        <ele>21.18</ele>
        <time>2022-07-02T14:22:23Z</time>
      </trkpt>
      <trkpt lat="43.59428" lon="3.92617">
        <ele>20.55</ele>
        <time>2022-07-02T14:22:36Z</time>
      </trkpt>
      <trkpt lat="43.59429" lon="3.92624">
        <ele>20.39</ele>
        <time>2022-07-02T14:22:37Z</time>
      </trkpt>
      <trkpt lat="43.59429" lon="3.92631">
        <ele>20.23</ele>
        <time>2022-07-02T14:22:38Z</time>
      </trkpt>
      <trkpt lat="43.59427" lon="3.92638">
        <ele>20.06</ele>
        <time>2022-07-02T14:22:39Z</time>
      </trkpt>
      <trkpt lat="43.59425" lon="3.92645">
        <ele>19.9</ele>
        <time>2022-07-02T14:22:40Z</time>
      </trkpt>
      <trkpt lat="43.59424" lon="3.92652">
        <ele>19.77</ele>
        <time>2022-07-02T14:22:41Z</time>
      </trkpt>
      <trkpt lat="43.59423" lon="3.92659">
        <ele>19.65</ele>
        <time>2022-07-02T14:22:42Z</time>
      </trkpt>
      <trkpt lat="43.59421" lon="3.92666">
        <ele>19.57</ele>
        <time>2022-07-02T14:22:43Z</time>
      </trkpt>
      <trkpt lat="43.59418" lon="3.92671">
        <ele>19.41</ele>
        <time>2022-07-02T14:22:44Z</time>
      </trkpt>
      <trkpt lat="43.59415" lon="3.92676">
        <ele>19.35</ele>
        <time>2022-07-02T14:22:45Z</time>
      </trkpt>
      <trkpt lat="43.59411" lon="3.92681">
        <ele>19.32</ele>
        <time>2022-07-02T14:22:46Z</time>
      </trkpt>
      <trkpt lat="43.59407" lon="3.92685">
        <ele>19.28</ele>
        <time>2022-07-02T14:22:47Z</time>
      </trkpt>
      <trkpt lat="43.59403" lon="3.92688">
        <ele>19.23</ele>
        <time>2022-07-02T14:22:48Z</time>
      </trkpt>
      <trkpt lat="43.59398" lon="3.92692">
        <ele>19.17</ele>
        <time>2022-07-02T14:22:49Z</time>
      </trkpt>
      <trkpt lat="43.59385" lon="3.92706">
        <ele>18.75</ele>
        <time>2022-07-02T14:22:53Z</time>
      </trkpt>
      <trkpt lat="43.59385" lon="3.9271">
        <ele>18.68</ele>
        <time>2022-07-02T14:22:54Z</time>
      </trkpt>
      <trkpt lat="43.59385" lon="3.92714">
        <ele>18.61</ele>
        <time>2022-07-02T14:22:55Z</time>
      </trkpt>
      <trkpt lat="43.59388" lon="3.92722">
        <ele>18.56</ele>
        <time>2022-07-02T14:22:57Z</time>
      </trkpt>
      <trkpt lat="43.59388" lon="3.92725">
        <ele>18.55</ele>
        <time>2022-07-02T14:22:58Z</time>
      </trkpt>
      <trkpt lat="43.59385" lon="3.92728">
        <ele>18.55</ele>
        <time>2022-07-02T14:22:59Z</time>
      </trkpt>
      <trkpt lat="43.59382" lon="3.92731">
        <ele>18.55</ele>
        <time>2022-07-02T14:23:00Z</time>
      </trkpt>
      <trkpt lat="43.59378" lon="3.92736">
        <ele>18.54</ele>
        <time>2022-07-02T14:23:01Z</time>
      </trkpt>
      <trkpt lat="43.59376" lon="3.92742">
        <ele>18.52</ele>
        <time>2022-07-02T14:23:02Z</time>
      </trkpt>
      <trkpt lat="43.59373" lon="3.92748">
        <ele>18.48</ele>
        <time>2022-07-02T14:23:03Z</time>
      </trkpt>
      <trkpt lat="43.59371" lon="3.92755">
        <ele>18.4</ele>
        <time>2022-07-02T14:23:04Z</time>
      </trkpt>
      <trkpt lat="43.5937" lon="3.92762">
        <ele>18.28</ele>
        <time>2022-07-02T14:23:05Z</time>
      </trkpt>
      <trkpt lat="43.59369" lon="3.92769">
        <ele>18.14</ele>
        <time>2022-07-02T14:23:06Z</time>
      </trkpt>
      <trkpt lat="43.59369" lon="3.92776">
        <ele>18.04</ele>
        <time>2022-07-02T14:23:07Z</time>
      </trkpt>
      <trkpt lat="43.5937" lon="3.92783">
        <ele>17.95</ele>
        <time>2022-07-02T14:23:08Z</time>
      </trkpt>
      <trkpt lat="43.5937" lon="3.9279">
        <ele>17.87</ele>
        <time>2022-07-02T14:23:09Z</time>
      </trkpt>
      <trkpt lat="43.5938" lon="3.92916">
        <ele>17.87</ele>
        <time>2022-07-02T14:23:27Z</time>
      </trkpt>
      <trkpt lat="43.59386" lon="3.92973">
        <ele>18.09</ele>
        <time>2022-07-02T14:23:36Z</time>
      </trkpt>
      <trkpt lat="43.59387" lon="3.92979">
        <ele>18.19</ele>
        <time>2022-07-02T14:23:37Z</time>
      </trkpt>
      <trkpt lat="43.5939" lon="3.92983">
        <ele>18.34</ele>
        <time>2022-07-02T14:23:38Z</time>
      </trkpt>
      <trkpt lat="43.59393" lon="3.92987">
        <ele>18.48</ele>
        <time>2022-07-02T14:23:39Z</time>
      </trkpt>
      <trkpt lat="43.59397" lon="3.92989">
        <ele>18.59</ele>
        <time>2022-07-02T14:23:40Z</time>
      </trkpt>
      <trkpt lat="43.59402" lon="3.92989">
        <ele>18.69</ele>
        <time>2022-07-02T14:23:41Z</time>
      </trkpt>
      <trkpt lat="43.59406" lon="3.9299">
        <ele>18.82</ele>
        <time>2022-07-02T14:23:42Z</time>
      </trkpt>
      <trkpt lat="43.59411" lon="3.92989">
        <ele>19.05</ele>
        <time>2022-07-02T14:23:43Z</time>
      </trkpt>
      <trkpt lat="43.59415" lon="3.92989">
        <ele>19.35</ele>
        <time>2022-07-02T14:23:44Z</time>
      </trkpt>
      <trkpt lat="43.59419" lon="3.92988">
        <ele>19.58</ele>
        <time>2022-07-02T14:23:45Z</time>
      </trkpt>
      <trkpt lat="43.59423" lon="3.92986">
        <ele>19.75</ele>
        <time>2022-07-02T14:23:46Z</time>
      </trkpt>
      <trkpt lat="43.59427" lon="3.92985">
        <ele>19.95</ele>
        <time>2022-07-02T14:23:47Z</time>
      </trkpt>
      <trkpt lat="43.59462" lon="3.92968">
        <ele>21.5</ele>
        <time>2022-07-02T14:23:57Z</time>
      </trkpt>
      <trkpt lat="43.59499" lon="3.92951">
        <ele>23.3</ele>
        <time>2022-07-02T14:24:09Z</time>
      </trkpt>
      <trkpt lat="43.59532" lon="3.92935">
        <ele>24.78</ele>
        <time>2022-07-02T14:24:21Z</time>
      </trkpt>
      <trkpt lat="43.59577" lon="3.92912">
        <ele>26.72</ele>
        <time>2022-07-02T14:24:38Z</time>
      </trkpt>
      <trkpt lat="43.59608" lon="3.92892">
        <ele>28.26</ele>
        <time>2022-07-02T14:24:50Z</time>
      </trkpt>
      <trkpt lat="43.59636" lon="3.9287">
        <ele>30</ele>
        <time>2022-07-02T14:25:02Z</time>
      </trkpt>
      <trkpt lat="43.59668" lon="3.92844">
        <ele>31.92</ele>
        <time>2022-07-02T14:25:15Z</time>
      </trkpt>
      <trkpt lat="43.59707" lon="3.92811">
        <ele>31.94</ele>
        <time>2022-07-02T14:25:29Z</time>
      </trkpt>
      <trkpt lat="43.59737" lon="3.9279">
        <ele>31.9</ele>
        <time>2022-07-02T14:25:38Z</time>
      </trkpt>
      <trkpt lat="43.59771" lon="3.9276">
        <ele>31.54</ele>
        <time>2022-07-02T14:25:47Z</time>
      </trkpt>
      <trkpt lat="43.59795" lon="3.92738">
        <ele>31.16</ele>
        <time>2022-07-02T14:25:53Z</time>
      </trkpt>
      <trkpt lat="43.59799" lon="3.92733">
        <ele>31.05</ele>
        <time>2022-07-02T14:25:54Z</time>
      </trkpt>
      <trkpt lat="43.59802" lon="3.92727">
        <ele>30.94</ele>
        <time>2022-07-02T14:25:55Z</time>
      </trkpt>
      <trkpt lat="43.59805" lon="3.92721">
        <ele>30.84</ele>
        <time>2022-07-02T14:25:56Z</time>
      </trkpt>
      <trkpt lat="43.59807" lon="3.92714">
        <ele>30.78</ele>
        <time>2022-07-02T14:25:57Z</time>
      </trkpt>
      <trkpt lat="43.59809" lon="3.92707">
        <ele>30.66</ele>
        <time>2022-07-02T14:25:58Z</time>
      </trkpt>
      <trkpt lat="43.59812" lon="3.927">
        <ele>30.22</ele>
        <time>2022-07-02T14:25:59Z</time>
      </trkpt>
      <trkpt lat="43.59813" lon="3.92693">
        <ele>30.08</ele>
        <time>2022-07-02T14:26:00Z</time>
      </trkpt>
      <trkpt lat="43.59814" lon="3.92686">
        <ele>29.94</ele>
        <time>2022-07-02T14:26:01Z</time>
      </trkpt>
      <trkpt lat="43.59815" lon="3.92671">
        <ele>29.7</ele>
        <time>2022-07-02T14:26:03Z</time>
      </trkpt>
      <trkpt lat="43.59815" lon="3.92664">
        <ele>29.62</ele>
        <time>2022-07-02T14:26:04Z</time>
      </trkpt>
      <trkpt lat="43.59814" lon="3.92657">
        <ele>29.52</ele>
        <time>2022-07-02T14:26:05Z</time>
      </trkpt>
      <trkpt lat="43.59811" lon="3.92643">
        <ele>29.26</ele>
        <time>2022-07-02T14:26:07Z</time>
      </trkpt>
      <trkpt lat="43.5981" lon="3.92637">
        <ele>29.03</ele>
        <time>2022-07-02T14:26:08Z</time>
      </trkpt>
      <trkpt lat="43.59808" lon="3.92631">
        <ele>28.82</ele>
        <time>2022-07-02T14:26:09Z</time>
      </trkpt>
      <trkpt lat="43.59805" lon="3.92625">
        <ele>28.49</ele>
        <time>2022-07-02T14:26:10Z</time>
      </trkpt>
      <trkpt lat="43.59803" lon="3.92619">
        <ele>28.3</ele>
        <time>2022-07-02T14:26:11Z</time>
      </trkpt>
      <trkpt lat="43.59774" lon="3.92556">
        <ele>26.44</ele>
        <time>2022-07-02T14:26:23Z</time>
      </trkpt>
      <trkpt lat="43.59744" lon="3.9249">
        <ele>27.04</ele>
        <time>2022-07-02T14:26:37Z</time>
      </trkpt>
      <trkpt lat="43.59717" lon="3.92431">
        <ele>27.55</ele>
        <time>2022-07-02T14:26:50Z</time>
      </trkpt>
      <trkpt lat="43.59709" lon="3.92408">
        <ele>27.76</ele>
        <time>2022-07-02T14:26:56Z</time>
      </trkpt>
      <trkpt lat="43.5971" lon="3.92406">
        <ele>27.76</ele>
        <time>2022-07-02T14:26:57Z</time>
      </trkpt>
      <trkpt lat="43.59711" lon="3.92403">
        <ele>27.77</ele>
        <time>2022-07-02T14:26:58Z</time>
      </trkpt>
      <trkpt lat="43.59714" lon="3.9239">
        <ele>27.82</ele>
        <time>2022-07-02T14:27:03Z</time>
      </trkpt>
      <trkpt lat="43.59714" lon="3.92377">
        <ele>27.97</ele>
        <time>2022-07-02T14:27:09Z</time>
      </trkpt>
      <trkpt lat="43.59717" lon="3.92372">
        <ele>27.89</ele>
        <time>2022-07-02T14:27:12Z</time>
      </trkpt>
      <trkpt lat="43.59724" lon="3.92358">
        <ele>27.47</ele>
        <time>2022-07-02T14:27:16Z</time>
      </trkpt>
      <trkpt lat="43.59747" lon="3.92352">
        <ele>26.97</ele>
        <time>2022-07-02T14:27:23Z</time>
      </trkpt>
      <trkpt lat="43.59754" lon="3.92356">
        <ele>26.85</ele>
        <time>2022-07-02T14:27:25Z</time>
      </trkpt>
      <trkpt lat="43.59766" lon="3.9236">
        <ele>26.95</ele>
        <time>2022-07-02T14:27:30Z</time>
      </trkpt>
      <trkpt lat="43.5979" lon="3.92358">
        <ele>26.21</ele>
        <time>2022-07-02T14:27:36Z</time>
      </trkpt>
      <trkpt lat="43.59827" lon="3.92349">
        <ele>24.65</ele>
        <time>2022-07-02T14:27:43Z</time>
      </trkpt>
      <trkpt lat="43.5987" lon="3.92336">
        <ele>23.49</ele>
        <time>2022-07-02T14:27:52Z</time>
      </trkpt>
      <trkpt lat="43.59884" lon="3.92331">
        <ele>23.72</ele>
        <time>2022-07-02T14:27:58Z</time>
      </trkpt>
      <trkpt lat="43.5988" lon="3.92331">
        <ele>24.38</ele>
        <time>2022-07-02T14:28:02Z</time>
      </trkpt>
      <trkpt lat="43.59867" lon="3.92337">
        <ele>24.22</ele>
        <time>2022-07-02T14:28:07Z</time>
      </trkpt>
      <trkpt lat="43.59874" lon="3.92346">
        <ele>23.97</ele>
        <time>2022-07-02T14:28:11Z</time>
      </trkpt>
      <trkpt lat="43.59877" lon="3.92345">
        <ele>23.91</ele>
        <time>2022-07-02T14:28:12Z</time>
      </trkpt>
      <trkpt lat="43.59899" lon="3.92334">
        <ele>23.69</ele>
        <time>2022-07-02T14:28:19Z</time>
      </trkpt>
      <trkpt lat="43.59917" lon="3.92333">
        <ele>23.45</ele>
        <time>2022-07-02T14:28:23Z</time>
      </trkpt>
      <trkpt lat="43.59935" lon="3.92322">
        <ele>22.85</ele>
        <time>2022-07-02T14:28:28Z</time>
      </trkpt>
      <trkpt lat="43.59937" lon="3.92319">
        <ele>22.77</ele>
        <time>2022-07-02T14:28:29Z</time>
      </trkpt>
      <trkpt lat="43.59938" lon="3.92315">
        <ele>22.71</ele>
        <time>2022-07-02T14:28:30Z</time>
      </trkpt>
      <trkpt lat="43.59939" lon="3.92313">
        <ele>22.67</ele>
        <time>2022-07-02T14:28:31Z</time>
      </trkpt>
      <trkpt lat="43.59941" lon="3.92311">
        <ele>22.69</ele>
        <time>2022-07-02T14:28:32Z</time>
      </trkpt>
      <trkpt lat="43.59945" lon="3.92313">
        <ele>22.8</ele>
        <time>2022-07-02T14:28:34Z</time>
      </trkpt>
      <trkpt lat="43.59944" lon="3.92316">
        <ele>22.97</ele>
        <time>2022-07-02T14:28:35Z</time>
      </trkpt>
      <trkpt lat="43.59944" lon="3.92321">
        <ele>23.16</ele>
        <time>2022-07-02T14:28:36Z</time>
      </trkpt>
      <trkpt lat="43.59944" lon="3.92326">
        <ele>23.29</ele>
        <time>2022-07-02T14:28:37Z</time>
      </trkpt>
      <trkpt lat="43.59945" lon="3.92381">
        <ele>23.01</ele>
        <time>2022-07-02T14:28:46Z</time>
      </trkpt>
      <trkpt lat="43.59945" lon="3.92387">
        <ele>22.99</ele>
        <time>2022-07-02T14:28:47Z</time>
      </trkpt>
      <trkpt lat="43.59944" lon="3.92454">
        <ele>22.85</ele>
        <time>2022-07-02T14:28:58Z</time>
      </trkpt>
      <trkpt lat="43.59945" lon="3.92509">
        <ele>23.12</ele>
        <time>2022-07-02T14:29:08Z</time>
      </trkpt>
      <trkpt lat="43.59945" lon="3.92555">
        <ele>23.1</ele>
        <time>2022-07-02T14:29:17Z</time>
      </trkpt>
      <trkpt lat="43.59947" lon="3.9262">
        <ele>23</ele>
        <time>2022-07-02T14:29:28Z</time>
      </trkpt>
      <trkpt lat="43.59949" lon="3.92631">
        <ele>23</ele>
        <time>2022-07-02T14:29:30Z</time>
      </trkpt>
      <trkpt lat="43.59951" lon="3.92636">
        <ele>23.06</ele>
        <time>2022-07-02T14:29:31Z</time>
      </trkpt>
      <trkpt lat="43.59953" lon="3.92641">
        <ele>23.11</ele>
        <time>2022-07-02T14:29:32Z</time>
      </trkpt>
      <trkpt lat="43.59956" lon="3.92646">
        <ele>23.17</ele>
        <time>2022-07-02T14:29:33Z</time>
      </trkpt>
      <trkpt lat="43.59958" lon="3.9265">
        <ele>23.25</ele>
        <time>2022-07-02T14:29:34Z</time>
      </trkpt>
      <trkpt lat="43.59976" lon="3.92676">
        <ele>23.8</ele>
        <time>2022-07-02T14:29:40Z</time>
      </trkpt>
      <trkpt lat="43.59978" lon="3.92681">
        <ele>23.81</ele>
        <time>2022-07-02T14:29:41Z</time>
      </trkpt>
      <trkpt lat="43.59979" lon="3.92687">
        <ele>23.74</ele>
        <time>2022-07-02T14:29:42Z</time>
      </trkpt>
      <trkpt lat="43.59983" lon="3.92698">
        <ele>23.55</ele>
        <time>2022-07-02T14:29:44Z</time>
      </trkpt>
      <trkpt lat="43.59984" lon="3.92703">
        <ele>23.52</ele>
        <time>2022-07-02T14:29:45Z</time>
      </trkpt>
      <trkpt lat="43.59985" lon="3.92706">
        <ele>23.5</ele>
        <time>2022-07-02T14:29:46Z</time>
      </trkpt>
      <trkpt lat="43.59986" lon="3.92711">
        <ele>23.6</ele>
        <time>2022-07-02T14:29:47Z</time>
      </trkpt>
      <trkpt lat="43.59985" lon="3.92716">
        <ele>23.66</ele>
        <time>2022-07-02T14:29:48Z</time>
      </trkpt>
      <trkpt lat="43.59985" lon="3.9272">
        <ele>23.72</ele>
        <time>2022-07-02T14:29:49Z</time>
      </trkpt>
      <trkpt lat="43.59985" lon="3.92725">
        <ele>23.93</ele>
        <time>2022-07-02T14:29:50Z</time>
      </trkpt>
      <trkpt lat="43.59985" lon="3.92728">
        <ele>24.02</ele>
        <time>2022-07-02T14:29:51Z</time>
      </trkpt>
      <trkpt lat="43.59984" lon="3.92737">
        <ele>24.34</ele>
        <time>2022-07-02T14:29:54Z</time>
      </trkpt>
      <trkpt lat="43.59985" lon="3.9274">
        <ele>24.44</ele>
        <time>2022-07-02T14:29:55Z</time>
      </trkpt>
      <trkpt lat="43.59985" lon="3.92743">
        <ele>24.54</ele>
        <time>2022-07-02T14:29:56Z</time>
      </trkpt>
      <trkpt lat="43.59986" lon="3.92748">
        <ele>24.59</ele>
        <time>2022-07-02T14:29:57Z</time>
      </trkpt>
      <trkpt lat="43.59986" lon="3.92753">
        <ele>24.67</ele>
        <time>2022-07-02T14:29:58Z</time>
      </trkpt>
      <trkpt lat="43.59989" lon="3.92801">
        <ele>24.91</ele>
        <time>2022-07-02T14:30:06Z</time>
      </trkpt>
      <trkpt lat="43.59991" lon="3.92873">
        <ele>24.68</ele>
        <time>2022-07-02T14:30:17Z</time>
      </trkpt>
      <trkpt lat="43.59986" lon="3.92939">
        <ele>24.07</ele>
        <time>2022-07-02T14:30:26Z</time>
      </trkpt>
      <trkpt lat="43.59987" lon="3.92946">
        <ele>23.97</ele>
        <time>2022-07-02T14:30:27Z</time>
      </trkpt>
      <trkpt lat="43.59989" lon="3.92951">
        <ele>23.64</ele>
        <time>2022-07-02T14:30:28Z</time>
      </trkpt>
      <trkpt lat="43.59993" lon="3.92956">
        <ele>23.48</ele>
        <time>2022-07-02T14:30:29Z</time>
      </trkpt>
      <trkpt lat="43.59996" lon="3.9296">
        <ele>23.4</ele>
        <time>2022-07-02T14:30:30Z</time>
      </trkpt>
      <trkpt lat="43.6" lon="3.92964">
        <ele>23.35</ele>
        <time>2022-07-02T14:30:31Z</time>
      </trkpt>
      <trkpt lat="43.60022" lon="3.93005">
        <ele>23.9</ele>
        <time>2022-07-02T14:30:39Z</time>
      </trkpt>
      <trkpt lat="43.60049" lon="3.93061">
        <ele>25.33</ele>
        <time>2022-07-02T14:30:51Z</time>
      </trkpt>
      <trkpt lat="43.60076" lon="3.93113">
        <ele>26.11</ele>
        <time>2022-07-02T14:31:03Z</time>
      </trkpt>
      <trkpt lat="43.60097" lon="3.93163">
        <ele>26.61</ele>
        <time>2022-07-02T14:31:15Z</time>
      </trkpt>
      <trkpt lat="43.60119" lon="3.93213">
        <ele>27.77</ele>
        <time>2022-07-02T14:31:27Z</time>
      </trkpt>
      <trkpt lat="43.60141" lon="3.93261">
        <ele>29.05</ele>
        <time>2022-07-02T14:31:39Z</time>
      </trkpt>
      <trkpt lat="43.60153" lon="3.93307">
        <ele>29.55</ele>
        <time>2022-07-02T14:31:49Z</time>
      </trkpt>
      <trkpt lat="43.6016" lon="3.93363">
        <ele>29.94</ele>
        <time>2022-07-02T14:32:01Z</time>
      </trkpt>
      <trkpt lat="43.60167" lon="3.93425">
        <ele>31.1</ele>
        <time>2022-07-02T14:32:14Z</time>
      </trkpt>
      <trkpt lat="43.60172" lon="3.93475">
        <ele>32.14</ele>
        <time>2022-07-02T14:32:25Z</time>
      </trkpt>
      <trkpt lat="43.60168" lon="3.93505">
        <ele>32.75</ele>
        <time>2022-07-02T14:32:32Z</time>
      </trkpt>
      <trkpt lat="43.60149" lon="3.93562">
        <ele>32.13</ele>
        <time>2022-07-02T14:32:43Z</time>
      </trkpt>
      <trkpt lat="43.60143" lon="3.93585">
        <ele>31.85</ele>
        <time>2022-07-02T14:32:47Z</time>
      </trkpt>
      <trkpt lat="43.60139" lon="3.93642">
        <ele>31.52</ele>
        <time>2022-07-02T14:32:56Z</time>
      </trkpt>
      <trkpt lat="43.6014" lon="3.93648">
        <ele>31.42</ele>
        <time>2022-07-02T14:32:57Z</time>
      </trkpt>
      <trkpt lat="43.60142" lon="3.93654">
        <ele>31.34</ele>
        <time>2022-07-02T14:32:58Z</time>
      </trkpt>
      <trkpt lat="43.60143" lon="3.9366">
        <ele>31.26</ele>
        <time>2022-07-02T14:32:59Z</time>
      </trkpt>
      <trkpt lat="43.60146" lon="3.93665">
        <ele>31.21</ele>
        <time>2022-07-02T14:33:00Z</time>
      </trkpt>
      <trkpt lat="43.60165" lon="3.93701">
        <ele>31.51</ele>
        <time>2022-07-02T14:33:07Z</time>
      </trkpt>
      <trkpt lat="43.60168" lon="3.93705">
        <ele>31.54</ele>
        <time>2022-07-02T14:33:08Z</time>
      </trkpt>
      <trkpt lat="43.60179" lon="3.93716">
        <ele>31.51</ele>
        <time>2022-07-02T14:33:11Z</time>
      </trkpt>
      <trkpt lat="43.60183" lon="3.93718">
        <ele>31.54</ele>
        <time>2022-07-02T14:33:12Z</time>
      </trkpt>
      <trkpt lat="43.60188" lon="3.93719">
        <ele>31.53</ele>
        <time>2022-07-02T14:33:13Z</time>
      </trkpt>
      <trkpt lat="43.60236" lon="3.93726">
        <ele>31.49</ele>
        <time>2022-07-02T14:33:25Z</time>
      </trkpt>
      <trkpt lat="43.60276" lon="3.93737">
        <ele>32.72</ele>
        <time>2022-07-02T14:33:37Z</time>
      </trkpt>
      <trkpt lat="43.60305" lon="3.93734">
        <ele>32.86</ele>
        <time>2022-07-02T14:33:46Z</time>
      </trkpt>
      <trkpt lat="43.60325" lon="3.93714">
        <ele>33.2</ele>
        <time>2022-07-02T14:33:53Z</time>
      </trkpt>
      <trkpt lat="43.60347" lon="3.93691">
        <ele>33.42</ele>
        <time>2022-07-02T14:34:01Z</time>
      </trkpt>
      <trkpt lat="43.60356" lon="3.93687">
        <ele>33.59</ele>
        <time>2022-07-02T14:34:04Z</time>
      </trkpt>
      <trkpt lat="43.60359" lon="3.93689">
        <ele>33.6</ele>
        <time>2022-07-02T14:34:05Z</time>
      </trkpt>
      <trkpt lat="43.60361" lon="3.93692">
        <ele>33.63</ele>
        <time>2022-07-02T14:34:06Z</time>
      </trkpt>
      <trkpt lat="43.60363" lon="3.93694">
        <ele>33.72</ele>
        <time>2022-07-02T14:34:07Z</time>
      </trkpt>
      <trkpt lat="43.60365" lon="3.93697">
        <ele>33.9</ele>
        <time>2022-07-02T14:34:08Z</time>
      </trkpt>
      <trkpt lat="43.60368" lon="3.937">
        <ele>34.13</ele>
        <time>2022-07-02T14:34:09Z</time>
      </trkpt>
      <trkpt lat="43.6037" lon="3.93702">
        <ele>34.44</ele>
        <time>2022-07-02T14:34:10Z</time>
      </trkpt>
      <trkpt lat="43.60387" lon="3.93722">
        <ele>34.74</ele>
        <time>2022-07-02T14:34:17Z</time>
      </trkpt>
      <trkpt lat="43.604" lon="3.93731">
        <ele>34.88</ele>
        <time>2022-07-02T14:34:21Z</time>
      </trkpt>
      <trkpt lat="43.60402" lon="3.9373">
        <ele>34.91</ele>
        <time>2022-07-02T14:34:22Z</time>
      </trkpt>
      <trkpt lat="43.60404" lon="3.93728">
        <ele>34.95</ele>
        <time>2022-07-02T14:34:23Z</time>
      </trkpt>
      <trkpt lat="43.60414" lon="3.93718">
        <ele>35.11</ele>
        <time>2022-07-02T14:34:27Z</time>
      </trkpt>
      <trkpt lat="43.60417" lon="3.93717">
        <ele>35.18</ele>
        <time>2022-07-02T14:34:28Z</time>
      </trkpt>
      <trkpt lat="43.6042" lon="3.93714">
        <ele>35.37</ele>
        <time>2022-07-02T14:34:29Z</time>
      </trkpt>
      <trkpt lat="43.60423" lon="3.93712">
        <ele>35.57</ele>
        <time>2022-07-02T14:34:30Z</time>
      </trkpt>
      <trkpt lat="43.6045" lon="3.93691">
        <ele>36.51</ele>
        <time>2022-07-02T14:34:40Z</time>
      </trkpt>
      <trkpt lat="43.60476" lon="3.93668">
        <ele>38.73</ele>
        <time>2022-07-02T14:34:52Z</time>
      </trkpt>
      <trkpt lat="43.60502" lon="3.93649">
        <ele>40.37</ele>
        <time>2022-07-02T14:35:04Z</time>
      </trkpt>
      <trkpt lat="43.60525" lon="3.93632">
        <ele>41.39</ele>
        <time>2022-07-02T14:35:15Z</time>
      </trkpt>
      <trkpt lat="43.60547" lon="3.93621">
        <ele>42.43</ele>
        <time>2022-07-02T14:35:25Z</time>
      </trkpt>
      <trkpt lat="43.60573" lon="3.93612">
        <ele>42.79</ele>
        <time>2022-07-02T14:35:36Z</time>
      </trkpt>
      <trkpt lat="43.60605" lon="3.93604">
        <ele>43.03</ele>
        <time>2022-07-02T14:35:48Z</time>
      </trkpt>
      <trkpt lat="43.60618" lon="3.93601">
        <ele>43.17</ele>
        <time>2022-07-02T14:35:54Z</time>
      </trkpt>
      <trkpt lat="43.60625" lon="3.93606">
        <ele>43.04</ele>
        <time>2022-07-02T14:35:57Z</time>
      </trkpt>
      <trkpt lat="43.60631" lon="3.93637">
        <ele>41.76</ele>
        <time>2022-07-02T14:36:04Z</time>
      </trkpt>
      <trkpt lat="43.60641" lon="3.93698">
        <ele>40.07</ele>
        <time>2022-07-02T14:36:14Z</time>
      </trkpt>
      <trkpt lat="43.60645" lon="3.93717">
        <ele>40.03</ele>
        <time>2022-07-02T14:36:17Z</time>
      </trkpt>
      <trkpt lat="43.60649" lon="3.93734">
        <ele>39.41</ele>
        <time>2022-07-02T14:36:20Z</time>
      </trkpt>
      <trkpt lat="43.60652" lon="3.93759">
        <ele>38.85</ele>
        <time>2022-07-02T14:36:25Z</time>
      </trkpt>
      <trkpt lat="43.60655" lon="3.93806">
        <ele>39.23</ele>
        <time>2022-07-02T14:36:33Z</time>
      </trkpt>
      <trkpt lat="43.60657" lon="3.93881">
        <ele>39.04</ele>
        <time>2022-07-02T14:36:45Z</time>
      </trkpt>
      <trkpt lat="43.60661" lon="3.93932">
        <ele>39.66</ele>
        <time>2022-07-02T14:36:55Z</time>
      </trkpt>
      <trkpt lat="43.60665" lon="3.93985">
        <ele>41.82</ele>
        <time>2022-07-02T14:37:08Z</time>
      </trkpt>
      <trkpt lat="43.6066" lon="3.94038">
        <ele>43.32</ele>
        <time>2022-07-02T14:37:22Z</time>
      </trkpt>
      <trkpt lat="43.60647" lon="3.94079">
        <ele>43.68</ele>
        <time>2022-07-02T14:37:33Z</time>
      </trkpt>
      <trkpt lat="43.60647" lon="3.94084">
        <ele>43.67</ele>
        <time>2022-07-02T14:37:34Z</time>
      </trkpt>
      <trkpt lat="43.60651" lon="3.94091">
        <ele>43.49</ele>
        <time>2022-07-02T14:37:36Z</time>
      </trkpt>
      <trkpt lat="43.60654" lon="3.94092">
        <ele>43.36</ele>
        <time>2022-07-02T14:37:37Z</time>
      </trkpt>
      <trkpt lat="43.60657" lon="3.94091">
        <ele>43.29</ele>
        <time>2022-07-02T14:37:38Z</time>
      </trkpt>
      <trkpt lat="43.6066" lon="3.9409">
        <ele>43.24</ele>
        <time>2022-07-02T14:37:39Z</time>
      </trkpt>
      <trkpt lat="43.60663" lon="3.94088">
        <ele>43.19</ele>
        <time>2022-07-02T14:37:40Z</time>
      </trkpt>
      <trkpt lat="43.60667" lon="3.94087">
        <ele>43.11</ele>
        <time>2022-07-02T14:37:41Z</time>
      </trkpt>
      <trkpt lat="43.6067" lon="3.94086">
        <ele>43.02</ele>
        <time>2022-07-02T14:37:42Z</time>
      </trkpt>
      <trkpt lat="43.60698" lon="3.94073">
        <ele>42.71</ele>
        <time>2022-07-02T14:37:50Z</time>
      </trkpt>
      <trkpt lat="43.60729" lon="3.94059">
        <ele>42.63</ele>
        <time>2022-07-02T14:37:59Z</time>
      </trkpt>
      <trkpt lat="43.60782" lon="3.94035">
        <ele>43.5</ele>
        <time>2022-07-02T14:38:14Z</time>
      </trkpt>
      <trkpt lat="43.60818" lon="3.94021">
        <ele>44.53</ele>
        <time>2022-07-02T14:38:25Z</time>
      </trkpt>
      <trkpt lat="43.60849" lon="3.9401">
        <ele>45.31</ele>
        <time>2022-07-02T14:38:35Z</time>
      </trkpt>
      <trkpt lat="43.60881" lon="3.94004">
        <ele>45.96</ele>
        <time>2022-07-02T14:38:45Z</time>
      </trkpt>
      <trkpt lat="43.60913" lon="3.94004">
        <ele>46.67</ele>
        <time>2022-07-02T14:38:53Z</time>
      </trkpt>
      <trkpt lat="43.60918" lon="3.94004">
        <ele>46.67</ele>
        <time>2022-07-02T14:38:54Z</time>
      </trkpt>
      <trkpt lat="43.60922" lon="3.94004">
        <ele>46.67</ele>
        <time>2022-07-02T14:38:55Z</time>
      </trkpt>
      <trkpt lat="43.60927" lon="3.94004">
        <ele>46.67</ele>
        <time>2022-07-02T14:38:56Z</time>
      </trkpt>
      <trkpt lat="43.60933" lon="3.94005">
        <ele>46.67</ele>
        <time>2022-07-02T14:38:57Z</time>
      </trkpt>
      <trkpt lat="43.60969" lon="3.94005">
        <ele>46.2</ele>
        <time>2022-07-02T14:39:04Z</time>
      </trkpt>
      <trkpt lat="43.60987" lon="3.94003">
        <ele>46.22</ele>
        <time>2022-07-02T14:39:08Z</time>
      </trkpt>
      <trkpt lat="43.61031" lon="3.93999">
        <ele>47.52</ele>
        <time>2022-07-02T14:39:19Z</time>
      </trkpt>
      <trkpt lat="43.61052" lon="3.94001">
        <ele>47.4</ele>
        <time>2022-07-02T14:39:23Z</time>
      </trkpt>
      <trkpt lat="43.61057" lon="3.94003">
        <ele>47.24</ele>
        <time>2022-07-02T14:39:24Z</time>
      </trkpt>
      <trkpt lat="43.61062" lon="3.94006">
        <ele>47.06</ele>
        <time>2022-07-02T14:39:25Z</time>
      </trkpt>
      <trkpt lat="43.61068" lon="3.9401">
        <ele>46.86</ele>
        <time>2022-07-02T14:39:26Z</time>
      </trkpt>
      <trkpt lat="43.61073" lon="3.94014">
        <ele>46.69</ele>
        <time>2022-07-02T14:39:27Z</time>
      </trkpt>
      <trkpt lat="43.61078" lon="3.9402">
        <ele>46.53</ele>
        <time>2022-07-02T14:39:28Z</time>
      </trkpt>
      <trkpt lat="43.6111" lon="3.94067">
        <ele>45.48</ele>
        <time>2022-07-02T14:39:36Z</time>
      </trkpt>
      <trkpt lat="43.6114" lon="3.94112">
        <ele>45.57</ele>
        <time>2022-07-02T14:39:45Z</time>
      </trkpt>
      <trkpt lat="43.61187" lon="3.9418">
        <ele>46.52</ele>
        <time>2022-07-02T14:40:00Z</time>
      </trkpt>
      <trkpt lat="43.61231" lon="3.94241">
        <ele>46.36</ele>
        <time>2022-07-02T14:40:14Z</time>
      </trkpt>
      <trkpt lat="43.61233" lon="3.94246">
        <ele>46.28</ele>
        <time>2022-07-02T14:40:15Z</time>
      </trkpt>
      <trkpt lat="43.61234" lon="3.9425">
        <ele>46.1</ele>
        <time>2022-07-02T14:40:16Z</time>
      </trkpt>
      <trkpt lat="43.61235" lon="3.94254">
        <ele>46</ele>
        <time>2022-07-02T14:40:17Z</time>
      </trkpt>
      <trkpt lat="43.61235" lon="3.94257">
        <ele>45.89</ele>
        <time>2022-07-02T14:40:18Z</time>
      </trkpt>
      <trkpt lat="43.61235" lon="3.9426">
        <ele>45.82</ele>
        <time>2022-07-02T14:40:19Z</time>
      </trkpt>
      <trkpt lat="43.61234" lon="3.94263">
        <ele>45.78</ele>
        <time>2022-07-02T14:40:20Z</time>
      </trkpt>
      <trkpt lat="43.61233" lon="3.94266">
        <ele>45.74</ele>
        <time>2022-07-02T14:40:21Z</time>
      </trkpt>
      <trkpt lat="43.61232" lon="3.94268">
        <ele>45.7</ele>
        <time>2022-07-02T14:40:22Z</time>
      </trkpt>
      <trkpt lat="43.6123" lon="3.9427">
        <ele>45.65</ele>
        <time>2022-07-02T14:40:23Z</time>
      </trkpt>
      <trkpt lat="43.61229" lon="3.94272">
        <ele>45.62</ele>
        <time>2022-07-02T14:40:24Z</time>
      </trkpt>
      <trkpt lat="43.61228" lon="3.94273">
        <ele>45.59</ele>
        <time>2022-07-02T14:40:25Z</time>
      </trkpt>
      <trkpt lat="43.61228" lon="3.94274">
        <ele>45.58</ele>
        <time>2022-07-02T14:40:26Z</time>
      </trkpt>
      <trkpt lat="43.61227" lon="3.94276">
        <ele>45.65</ele>
        <time>2022-07-02T14:40:34Z</time>
      </trkpt>
      <trkpt lat="43.61228" lon="3.94276">
        <ele>47.35</ele>
        <time>2022-07-02T14:40:45Z</time>
      </trkpt>
      <trkpt lat="43.61229" lon="3.94276">
        <ele>47.65</ele>
        <time>2022-07-02T14:40:50Z</time>
      </trkpt>
      <trkpt lat="43.61232" lon="3.94274">
        <ele>47.66</ele>
        <time>2022-07-02T14:40:52Z</time>
      </trkpt>
      <trkpt lat="43.61234" lon="3.94273">
        <ele>47.59</ele>
        <time>2022-07-02T14:40:53Z</time>
      </trkpt>
      <trkpt lat="43.61236" lon="3.94272">
        <ele>47.34</ele>
        <time>2022-07-02T14:40:54Z</time>
      </trkpt>
      <trkpt lat="43.61239" lon="3.94271">
        <ele>46.99</ele>
        <time>2022-07-02T14:40:55Z</time>
      </trkpt>
      <trkpt lat="43.61242" lon="3.9427">
        <ele>46.51</ele>
        <time>2022-07-02T14:40:56Z</time>
      </trkpt>
      <trkpt lat="43.61245" lon="3.94269">
        <ele>46.29</ele>
        <time>2022-07-02T14:40:57Z</time>
      </trkpt>
      <trkpt lat="43.61267" lon="3.94275">
        <ele>45.57</ele>
        <time>2022-07-02T14:41:02Z</time>
      </trkpt>
      <trkpt lat="43.61288" lon="3.94288">
        <ele>45.11</ele>
        <time>2022-07-02T14:41:06Z</time>
      </trkpt>
      <trkpt lat="43.61333" lon="3.94335">
        <ele>43.08</ele>
        <time>2022-07-02T14:41:15Z</time>
      </trkpt>
      <trkpt lat="43.61382" lon="3.94396">
        <ele>40.56</ele>
        <time>2022-07-02T14:41:24Z</time>
      </trkpt>
      <trkpt lat="43.61441" lon="3.94471">
        <ele>38.69</ele>
        <time>2022-07-02T14:41:35Z</time>
      </trkpt>
      <trkpt lat="43.61469" lon="3.94508">
        <ele>39.06</ele>
        <time>2022-07-02T14:41:42Z</time>
      </trkpt>
      <trkpt lat="43.61483" lon="3.94526">
        <ele>36.45</ele>
        <time>2022-07-02T14:41:46Z</time>
      </trkpt>
      <trkpt lat="43.6149" lon="3.94534">
        <ele>33.25</ele>
        <time>2022-07-02T14:41:48Z</time>
      </trkpt>
      <trkpt lat="43.61493" lon="3.94538">
        <ele>33</ele>
        <time>2022-07-02T14:41:49Z</time>
      </trkpt>
      <trkpt lat="43.61523" lon="3.94582">
        <ele>32.73</ele>
        <time>2022-07-02T14:41:59Z</time>
      </trkpt>
      <trkpt lat="43.6153" lon="3.94594">
        <ele>35.92</ele>
        <time>2022-07-02T14:42:01Z</time>
      </trkpt>
      <trkpt lat="43.61533" lon="3.946">
        <ele>39.62</ele>
        <time>2022-07-02T14:42:02Z</time>
      </trkpt>
      <trkpt lat="43.61561" lon="3.94654">
        <ele>40.79</ele>
        <time>2022-07-02T14:42:09Z</time>
      </trkpt>
      <trkpt lat="43.61566" lon="3.94663">
        <ele>40.5</ele>
        <time>2022-07-02T14:42:10Z</time>
      </trkpt>
      <trkpt lat="43.61586" lon="3.947">
        <ele>36.29</ele>
        <time>2022-07-02T14:42:14Z</time>
      </trkpt>
      <trkpt lat="43.61613" lon="3.94735">
        <ele>32.84</ele>
        <time>2022-07-02T14:42:19Z</time>
      </trkpt>
      <trkpt lat="43.61623" lon="3.94746">
        <ele>31.79</ele>
        <time>2022-07-02T14:42:22Z</time>
      </trkpt>
      <trkpt lat="43.61624" lon="3.9475">
        <ele>31.63</ele>
        <time>2022-07-02T14:42:23Z</time>
      </trkpt>
      <trkpt lat="43.61625" lon="3.94754">
        <ele>31.46</ele>
        <time>2022-07-02T14:42:24Z</time>
      </trkpt>
      <trkpt lat="43.61626" lon="3.94759">
        <ele>31.42</ele>
        <time>2022-07-02T14:42:25Z</time>
      </trkpt>
      <trkpt lat="43.61625" lon="3.94763">
        <ele>31.44</ele>
        <time>2022-07-02T14:42:26Z</time>
      </trkpt>
      <trkpt lat="43.61624" lon="3.94768">
        <ele>31.48</ele>
        <time>2022-07-02T14:42:27Z</time>
      </trkpt>
      <trkpt lat="43.61621" lon="3.94814">
        <ele>31.75</ele>
        <time>2022-07-02T14:42:35Z</time>
      </trkpt>
      <trkpt lat="43.61623" lon="3.94874">
        <ele>31.99</ele>
        <time>2022-07-02T14:42:46Z</time>
      </trkpt>
      <trkpt lat="43.61631" lon="3.94914">
        <ele>31.77</ele>
        <time>2022-07-02T14:42:54Z</time>
      </trkpt>
      <trkpt lat="43.61634" lon="3.94916">
        <ele>31.78</ele>
        <time>2022-07-02T14:42:55Z</time>
      </trkpt>
      <trkpt lat="43.61638" lon="3.94913">
        <ele>31.9</ele>
        <time>2022-07-02T14:42:57Z</time>
      </trkpt>
      <trkpt lat="43.61638" lon="3.94908">
        <ele>31.9</ele>
        <time>2022-07-02T14:42:58Z</time>
      </trkpt>
      <trkpt lat="43.61637" lon="3.94903">
        <ele>31.91</ele>
        <time>2022-07-02T14:42:59Z</time>
      </trkpt>
      <trkpt lat="43.61636" lon="3.94898">
        <ele>31.87</ele>
        <time>2022-07-02T14:43:00Z</time>
      </trkpt>
      <trkpt lat="43.6163" lon="3.94848">
        <ele>31.2</ele>
        <time>2022-07-02T14:43:09Z</time>
      </trkpt>
      <trkpt lat="43.61629" lon="3.94794">
        <ele>31.5</ele>
        <time>2022-07-02T14:43:18Z</time>
      </trkpt>
      <trkpt lat="43.61628" lon="3.94788">
        <ele>31.45</ele>
        <time>2022-07-02T14:43:19Z</time>
      </trkpt>
      <trkpt lat="43.61627" lon="3.94777">
        <ele>31.44</ele>
        <time>2022-07-02T14:43:21Z</time>
      </trkpt>
      <trkpt lat="43.61627" lon="3.94771">
        <ele>31.42</ele>
        <time>2022-07-02T14:43:22Z</time>
      </trkpt>
      <trkpt lat="43.61627" lon="3.94765">
        <ele>31.39</ele>
        <time>2022-07-02T14:43:23Z</time>
      </trkpt>
      <trkpt lat="43.61627" lon="3.94753">
        <ele>31.31</ele>
        <time>2022-07-02T14:43:25Z</time>
      </trkpt>
      <trkpt lat="43.61625" lon="3.94747">
        <ele>31.32</ele>
        <time>2022-07-02T14:43:26Z</time>
      </trkpt>
      <trkpt lat="43.61623" lon="3.94741">
        <ele>31.37</ele>
        <time>2022-07-02T14:43:27Z</time>
      </trkpt>
      <trkpt lat="43.6162" lon="3.94736">
        <ele>31.46</ele>
        <time>2022-07-02T14:43:28Z</time>
      </trkpt>
      <trkpt lat="43.61616" lon="3.94732">
        <ele>31.55</ele>
        <time>2022-07-02T14:43:29Z</time>
      </trkpt>
      <trkpt lat="43.61612" lon="3.94728">
        <ele>31.64</ele>
        <time>2022-07-02T14:43:30Z</time>
      </trkpt>
      <trkpt lat="43.61586" lon="3.94695">
        <ele>32.1</ele>
        <time>2022-07-02T14:43:38Z</time>
      </trkpt>
      <trkpt lat="43.61567" lon="3.9466">
        <ele>33.24</ele>
        <time>2022-07-02T14:43:47Z</time>
      </trkpt>
      <trkpt lat="43.61556" lon="3.94638">
        <ele>34.99</ele>
        <time>2022-07-02T14:43:54Z</time>
      </trkpt>
      <trkpt lat="43.61538" lon="3.94604">
        <ele>36.91</ele>
        <time>2022-07-02T14:44:06Z</time>
      </trkpt>
      <trkpt lat="43.6152" lon="3.94572">
        <ele>38.68</ele>
        <time>2022-07-02T14:44:18Z</time>
      </trkpt>
      <trkpt lat="43.61502" lon="3.94546">
        <ele>39.51</ele>
        <time>2022-07-02T14:44:29Z</time>
      </trkpt>
      <trkpt lat="43.61478" lon="3.94515">
        <ele>40.06</ele>
        <time>2022-07-02T14:44:41Z</time>
      </trkpt>
      <trkpt lat="43.61454" lon="3.94482">
        <ele>40.08</ele>
        <time>2022-07-02T14:44:51Z</time>
      </trkpt>
      <trkpt lat="43.61414" lon="3.9443">
        <ele>39.39</ele>
        <time>2022-07-02T14:45:05Z</time>
      </trkpt>
      <trkpt lat="43.6138" lon="3.94386">
        <ele>39.33</ele>
        <time>2022-07-02T14:45:19Z</time>
      </trkpt>
      <trkpt lat="43.61348" lon="3.94348">
        <ele>41.01</ele>
        <time>2022-07-02T14:45:33Z</time>
      </trkpt>
      <trkpt lat="43.61319" lon="3.94312">
        <ele>42.6</ele>
        <time>2022-07-02T14:45:47Z</time>
      </trkpt>
      <trkpt lat="43.61291" lon="3.94284">
        <ele>43.62</ele>
        <time>2022-07-02T14:46:00Z</time>
      </trkpt>
      <trkpt lat="43.61264" lon="3.94269">
        <ele>44.07</ele>
        <time>2022-07-02T14:46:11Z</time>
      </trkpt>
      <trkpt lat="43.61241" lon="3.94263">
        <ele>44.86</ele>
        <time>2022-07-02T14:46:20Z</time>
      </trkpt>
      <trkpt lat="43.61218" lon="3.94276">
        <ele>45.5</ele>
        <time>2022-07-02T14:46:28Z</time>
      </trkpt>
      <trkpt lat="43.61193" lon="3.94284">
        <ele>46.02</ele>
        <time>2022-07-02T14:46:37Z</time>
      </trkpt>
      <trkpt lat="43.61151" lon="3.94297">
        <ele>46.38</ele>
        <time>2022-07-02T14:46:50Z</time>
      </trkpt>
      <trkpt lat="43.61113" lon="3.94308">
        <ele>45.5</ele>
        <time>2022-07-02T14:46:59Z</time>
      </trkpt>
      <trkpt lat="43.61068" lon="3.94327">
        <ele>44.43</ele>
        <time>2022-07-02T14:47:10Z</time>
      </trkpt>
      <trkpt lat="43.61022" lon="3.94361">
        <ele>45.43</ele>
        <time>2022-07-02T14:47:24Z</time>
      </trkpt>
      <trkpt lat="43.60997" lon="3.94394">
        <ele>45.73</ele>
        <time>2022-07-02T14:47:33Z</time>
      </trkpt>
      <trkpt lat="43.60968" lon="3.94424">
        <ele>45.34</ele>
        <time>2022-07-02T14:47:42Z</time>
      </trkpt>
      <trkpt lat="43.6093" lon="3.94457">
        <ele>44.98</ele>
        <time>2022-07-02T14:47:52Z</time>
      </trkpt>
      <trkpt lat="43.60884" lon="3.94498">
        <ele>44.59</ele>
        <time>2022-07-02T14:48:04Z</time>
      </trkpt>
      <trkpt lat="43.60848" lon="3.94527">
        <ele>44.98</ele>
        <time>2022-07-02T14:48:14Z</time>
      </trkpt>
      <trkpt lat="43.60825" lon="3.94546">
        <ele>46.55</ele>
        <time>2022-07-02T14:48:22Z</time>
      </trkpt>
      <trkpt lat="43.60797" lon="3.9457">
        <ele>47.54</ele>
        <time>2022-07-02T14:48:32Z</time>
      </trkpt>
      <trkpt lat="43.6076" lon="3.94601">
        <ele>47.59</ele>
        <time>2022-07-02T14:48:43Z</time>
      </trkpt>
      <trkpt lat="43.60725" lon="3.94631">
        <ele>46.43</ele>
        <time>2022-07-02T14:48:50Z</time>
      </trkpt>
      <trkpt lat="43.60677" lon="3.94673">
        <ele>43.21</ele>
        <time>2022-07-02T14:48:58Z</time>
      </trkpt>
      <trkpt lat="43.60641" lon="3.947">
        <ele>40.98</ele>
        <time>2022-07-02T14:49:03Z</time>
      </trkpt>
      <trkpt lat="43.606" lon="3.94734">
        <ele>37.13</ele>
        <time>2022-07-02T14:49:08Z</time>
      </trkpt>
      <trkpt lat="43.60592" lon="3.94739">
        <ele>36.21</ele>
        <time>2022-07-02T14:49:09Z</time>
      </trkpt>
      <trkpt lat="43.60586" lon="3.94743">
        <ele>35.45</ele>
        <time>2022-07-02T14:49:10Z</time>
      </trkpt>
      <trkpt lat="43.6058" lon="3.94744">
        <ele>34.85</ele>
        <time>2022-07-02T14:49:11Z</time>
      </trkpt>
      <trkpt lat="43.60575" lon="3.94741">
        <ele>34.31</ele>
        <time>2022-07-02T14:49:12Z</time>
      </trkpt>
      <trkpt lat="43.60572" lon="3.94733">
        <ele>33.89</ele>
        <time>2022-07-02T14:49:13Z</time>
      </trkpt>
      <trkpt lat="43.6057" lon="3.94725">
        <ele>33.59</ele>
        <time>2022-07-02T14:49:14Z</time>
      </trkpt>
      <trkpt lat="43.6054" lon="3.94652">
        <ele>32.3</ele>
        <time>2022-07-02T14:49:25Z</time>
      </trkpt>
      <trkpt lat="43.60519" lon="3.94588">
        <ele>32.22</ele>
        <time>2022-07-02T14:49:35Z</time>
      </trkpt>
      <trkpt lat="43.60506" lon="3.94517">
        <ele>32.75</ele>
        <time>2022-07-02T14:49:46Z</time>
      </trkpt>
      <trkpt lat="43.60497" lon="3.94467">
        <ele>33.03</ele>
        <time>2022-07-02T14:49:54Z</time>
      </trkpt>
      <trkpt lat="43.60495" lon="3.94461">
        <ele>32.84</ele>
        <time>2022-07-02T14:49:55Z</time>
      </trkpt>
      <trkpt lat="43.60492" lon="3.94456">
        <ele>32.7</ele>
        <time>2022-07-02T14:49:56Z</time>
      </trkpt>
      <trkpt lat="43.60489" lon="3.94451">
        <ele>32.62</ele>
        <time>2022-07-02T14:49:57Z</time>
      </trkpt>
      <trkpt lat="43.60485" lon="3.94447">
        <ele>32.57</ele>
        <time>2022-07-02T14:49:58Z</time>
      </trkpt>
      <trkpt lat="43.60482" lon="3.94443">
        <ele>32.55</ele>
        <time>2022-07-02T14:49:59Z</time>
      </trkpt>
      <trkpt lat="43.60477" lon="3.9444">
        <ele>32.59</ele>
        <time>2022-07-02T14:50:00Z</time>
      </trkpt>
      <trkpt lat="43.60473" lon="3.94438">
        <ele>32.65</ele>
        <time>2022-07-02T14:50:01Z</time>
      </trkpt>
      <trkpt lat="43.60468" lon="3.94437">
        <ele>32.74</ele>
        <time>2022-07-02T14:50:02Z</time>
      </trkpt>
      <trkpt lat="43.60464" lon="3.94437">
        <ele>32.84</ele>
        <time>2022-07-02T14:50:03Z</time>
      </trkpt>
      <trkpt lat="43.60459" lon="3.94438">
        <ele>32.9</ele>
        <time>2022-07-02T14:50:04Z</time>
      </trkpt>
      <trkpt lat="43.60455" lon="3.94439">
        <ele>32.98</ele>
        <time>2022-07-02T14:50:05Z</time>
      </trkpt>
      <trkpt lat="43.60451" lon="3.94441">
        <ele>33.08</ele>
        <time>2022-07-02T14:50:06Z</time>
      </trkpt>
      <trkpt lat="43.60447" lon="3.94443">
        <ele>33.12</ele>
        <time>2022-07-02T14:50:07Z</time>
      </trkpt>
      <trkpt lat="43.60443" lon="3.94446">
        <ele>33.12</ele>
        <time>2022-07-02T14:50:08Z</time>
      </trkpt>
      <trkpt lat="43.60439" lon="3.94449">
        <ele>33.12</ele>
        <time>2022-07-02T14:50:09Z</time>
      </trkpt>
      <trkpt lat="43.60402" lon="3.94478">
        <ele>33.13</ele>
        <time>2022-07-02T14:50:19Z</time>
      </trkpt>
      <trkpt lat="43.60359" lon="3.94512">
        <ele>33.55</ele>
        <time>2022-07-02T14:50:31Z</time>
      </trkpt>
      <trkpt lat="43.60355" lon="3.94513">
        <ele>33.51</ele>
        <time>2022-07-02T14:50:32Z</time>
      </trkpt>
      <trkpt lat="43.60351" lon="3.94514">
        <ele>33.49</ele>
        <time>2022-07-02T14:50:33Z</time>
      </trkpt>
      <trkpt lat="43.60347" lon="3.94514">
        <ele>33.41</ele>
        <time>2022-07-02T14:50:34Z</time>
      </trkpt>
      <trkpt lat="43.60343" lon="3.94514">
        <ele>33.26</ele>
        <time>2022-07-02T14:50:35Z</time>
      </trkpt>
      <trkpt lat="43.60339" lon="3.94512">
        <ele>33.17</ele>
        <time>2022-07-02T14:50:36Z</time>
      </trkpt>
      <trkpt lat="43.60336" lon="3.9451">
        <ele>33.11</ele>
        <time>2022-07-02T14:50:37Z</time>
      </trkpt>
      <trkpt lat="43.60332" lon="3.94507">
        <ele>33.08</ele>
        <time>2022-07-02T14:50:38Z</time>
      </trkpt>
      <trkpt lat="43.60329" lon="3.94504">
        <ele>33.12</ele>
        <time>2022-07-02T14:50:39Z</time>
      </trkpt>
      <trkpt lat="43.60326" lon="3.94501">
        <ele>33.22</ele>
        <time>2022-07-02T14:50:40Z</time>
      </trkpt>
      <trkpt lat="43.60324" lon="3.94497">
        <ele>33.34</ele>
        <time>2022-07-02T14:50:41Z</time>
      </trkpt>
      <trkpt lat="43.60321" lon="3.94493">
        <ele>33.45</ele>
        <time>2022-07-02T14:50:42Z</time>
      </trkpt>
      <trkpt lat="43.60308" lon="3.9446">
        <ele>34.87</ele>
        <time>2022-07-02T14:50:51Z</time>
      </trkpt>
      <trkpt lat="43.60296" lon="3.94426">
        <ele>36.71</ele>
        <time>2022-07-02T14:51:02Z</time>
      </trkpt>
      <trkpt lat="43.60279" lon="3.94377">
        <ele>39.85</ele>
        <time>2022-07-02T14:51:18Z</time>
      </trkpt>
      <trkpt lat="43.60262" lon="3.94349">
        <ele>41.2</ele>
        <time>2022-07-02T14:51:29Z</time>
      </trkpt>
      <trkpt lat="43.60241" lon="3.9434">
        <ele>42.71</ele>
        <time>2022-07-02T14:51:39Z</time>
      </trkpt>
      <trkpt lat="43.60219" lon="3.9435">
        <ele>43.56</ele>
        <time>2022-07-02T14:51:47Z</time>
      </trkpt>
      <trkpt lat="43.60189" lon="3.9438">
        <ele>43.17</ele>
        <time>2022-07-02T14:51:56Z</time>
      </trkpt>
      <trkpt lat="43.60151" lon="3.94417">
        <ele>41.57</ele>
        <time>2022-07-02T14:52:06Z</time>
      </trkpt>
      <trkpt lat="43.60114" lon="3.94443">
        <ele>40.65</ele>
        <time>2022-07-02T14:52:15Z</time>
      </trkpt>
      <trkpt lat="43.60076" lon="3.94478">
        <ele>38.69</ele>
        <time>2022-07-02T14:52:25Z</time>
      </trkpt>
      <trkpt lat="43.6003" lon="3.94519">
        <ele>38.29</ele>
        <time>2022-07-02T14:52:37Z</time>
      </trkpt>
      <trkpt lat="43.60001" lon="3.94547">
        <ele>38.13</ele>
        <time>2022-07-02T14:52:46Z</time>
      </trkpt>
      <trkpt lat="43.59971" lon="3.94577">
        <ele>37.79</ele>
        <time>2022-07-02T14:52:54Z</time>
      </trkpt>
      <trkpt lat="43.59932" lon="3.94616">
        <ele>37.04</ele>
        <time>2022-07-02T14:53:03Z</time>
      </trkpt>
      <trkpt lat="43.5988" lon="3.94658">
        <ele>34.87</ele>
        <time>2022-07-02T14:53:13Z</time>
      </trkpt>
      <trkpt lat="43.59849" lon="3.94682">
        <ele>33.94</ele>
        <time>2022-07-02T14:53:18Z</time>
      </trkpt>
      <trkpt lat="43.59842" lon="3.94688">
        <ele>33.59</ele>
        <time>2022-07-02T14:53:19Z</time>
      </trkpt>
      <trkpt lat="43.59835" lon="3.94694">
        <ele>33.17</ele>
        <time>2022-07-02T14:53:20Z</time>
      </trkpt>
      <trkpt lat="43.59793" lon="3.94724">
        <ele>30.17</ele>
        <time>2022-07-02T14:53:25Z</time>
      </trkpt>
      <trkpt lat="43.59758" lon="3.94747">
        <ele>27.37</ele>
        <time>2022-07-02T14:53:29Z</time>
      </trkpt>
      <trkpt lat="43.59705" lon="3.94764">
        <ele>23.92</ele>
        <time>2022-07-02T14:53:35Z</time>
      </trkpt>
      <trkpt lat="43.5964" lon="3.94775">
        <ele>20.6</ele>
        <time>2022-07-02T14:53:43Z</time>
      </trkpt>
      <trkpt lat="43.5958" lon="3.94784">
        <ele>17.96</ele>
        <time>2022-07-02T14:53:52Z</time>
      </trkpt>
      <trkpt lat="43.59532" lon="3.94792">
        <ele>16.52</ele>
        <time>2022-07-02T14:54:01Z</time>
      </trkpt>
      <trkpt lat="43.59477" lon="3.94799">
        <ele>16.23</ele>
        <time>2022-07-02T14:54:13Z</time>
      </trkpt>
      <trkpt lat="43.59423" lon="3.94798">
        <ele>15.84</ele>
        <time>2022-07-02T14:54:26Z</time>
      </trkpt>
      <trkpt lat="43.59415" lon="3.94795">
        <ele>15.81</ele>
        <time>2022-07-02T14:54:28Z</time>
      </trkpt>
      <trkpt lat="43.59411" lon="3.94792">
        <ele>15.81</ele>
        <time>2022-07-02T14:54:29Z</time>
      </trkpt>
      <trkpt lat="43.59408" lon="3.94789">
        <ele>15.8</ele>
        <time>2022-07-02T14:54:30Z</time>
      </trkpt>
      <trkpt lat="43.59404" lon="3.94785">
        <ele>15.78</ele>
        <time>2022-07-02T14:54:31Z</time>
      </trkpt>
      <trkpt lat="43.59401" lon="3.94782">
        <ele>15.7</ele>
        <time>2022-07-02T14:54:32Z</time>
      </trkpt>
      <trkpt lat="43.59398" lon="3.94778">
        <ele>15.57</ele>
        <time>2022-07-02T14:54:33Z</time>
      </trkpt>
      <trkpt lat="43.59383" lon="3.94758">
        <ele>15.2</ele>
        <time>2022-07-02T14:54:38Z</time>
      </trkpt>
      <trkpt lat="43.5938" lon="3.94756">
        <ele>15.18</ele>
        <time>2022-07-02T14:54:39Z</time>
      </trkpt>
      <trkpt lat="43.59364" lon="3.94734">
        <ele>14.77</ele>
        <time>2022-07-02T14:54:46Z</time>
      </trkpt>
      <trkpt lat="43.59351" lon="3.94715">
        <ele>15</ele>
        <time>2022-07-02T14:54:51Z</time>
      </trkpt>
      <trkpt lat="43.59347" lon="3.94713">
        <ele>15.03</ele>
        <time>2022-07-02T14:54:52Z</time>
      </trkpt>
      <trkpt lat="43.59342" lon="3.94712">
        <ele>15.03</ele>
        <time>2022-07-02T14:54:53Z</time>
      </trkpt>
      <trkpt lat="43.59338" lon="3.94712">
        <ele>15.02</ele>
        <time>2022-07-02T14:54:54Z</time>
      </trkpt>
      <trkpt lat="43.59333" lon="3.94713">
        <ele>14.98</ele>
        <time>2022-07-02T14:54:55Z</time>
      </trkpt>
      <trkpt lat="43.59328" lon="3.94715">
        <ele>14.88</ele>
        <time>2022-07-02T14:54:56Z</time>
      </trkpt>
      <trkpt lat="43.59323" lon="3.94718">
        <ele>14.82</ele>
        <time>2022-07-02T14:54:57Z</time>
      </trkpt>
      <trkpt lat="43.59319" lon="3.94721">
        <ele>14.56</ele>
        <time>2022-07-02T14:54:58Z</time>
      </trkpt>
      <trkpt lat="43.59309" lon="3.94726">
        <ele>14.35</ele>
        <time>2022-07-02T14:55:00Z</time>
      </trkpt>
      <trkpt lat="43.59304" lon="3.94726">
        <ele>14.28</ele>
        <time>2022-07-02T14:55:01Z</time>
      </trkpt>
      <trkpt lat="43.59299" lon="3.94724">
        <ele>14.24</ele>
        <time>2022-07-02T14:55:02Z</time>
      </trkpt>
      <trkpt lat="43.59294" lon="3.94722">
        <ele>14.21</ele>
        <time>2022-07-02T14:55:03Z</time>
      </trkpt>
      <trkpt lat="43.59289" lon="3.94718">
        <ele>14.14</ele>
        <time>2022-07-02T14:55:04Z</time>
      </trkpt>
      <trkpt lat="43.59286" lon="3.94716">
        <ele>14.06</ele>
        <time>2022-07-02T14:55:05Z</time>
      </trkpt>
      <trkpt lat="43.59283" lon="3.94715">
        <ele>13.95</ele>
        <time>2022-07-02T14:55:06Z</time>
      </trkpt>
      <trkpt lat="43.59282" lon="3.94716">
        <ele>13.81</ele>
        <time>2022-07-02T14:55:07Z</time>
      </trkpt>
      <trkpt lat="43.59286" lon="3.94724">
        <ele>13.52</ele>
        <time>2022-07-02T14:55:10Z</time>
      </trkpt>
      <trkpt lat="43.59288" lon="3.94726">
        <ele>13.54</ele>
        <time>2022-07-02T14:55:11Z</time>
      </trkpt>
      <trkpt lat="43.59291" lon="3.94728">
        <ele>13.65</ele>
        <time>2022-07-02T14:55:12Z</time>
      </trkpt>
      <trkpt lat="43.59294" lon="3.94731">
        <ele>13.81</ele>
        <time>2022-07-02T14:55:13Z</time>
      </trkpt>
      <trkpt lat="43.59297" lon="3.94733">
        <ele>14.03</ele>
        <time>2022-07-02T14:55:14Z</time>
      </trkpt>
      <trkpt lat="43.59314" lon="3.94763">
        <ele>14.84</ele>
        <time>2022-07-02T14:55:22Z</time>
      </trkpt>
      <trkpt lat="43.59307" lon="3.94782">
        <ele>15.01</ele>
        <time>2022-07-02T14:55:26Z</time>
      </trkpt>
      <trkpt lat="43.59294" lon="3.94812">
        <ele>15.08</ele>
        <time>2022-07-02T14:55:33Z</time>
      </trkpt>
      <trkpt lat="43.5929" lon="3.94812">
        <ele>15.06</ele>
        <time>2022-07-02T14:55:34Z</time>
      </trkpt>
      <trkpt lat="43.59285" lon="3.94812">
        <ele>15.03</ele>
        <time>2022-07-02T14:55:35Z</time>
      </trkpt>
      <trkpt lat="43.59281" lon="3.94812">
        <ele>14.86</ele>
        <time>2022-07-02T14:55:36Z</time>
      </trkpt>
      <trkpt lat="43.59277" lon="3.94812">
        <ele>14.52</ele>
        <time>2022-07-02T14:55:37Z</time>
      </trkpt>
      <trkpt lat="43.59226" lon="3.94806">
        <ele>12.56</ele>
        <time>2022-07-02T14:55:47Z</time>
      </trkpt>
      <trkpt lat="43.59181" lon="3.94803">
        <ele>12.33</ele>
        <time>2022-07-02T14:55:55Z</time>
      </trkpt>
      <trkpt lat="43.59138" lon="3.94799">
        <ele>11.07</ele>
        <time>2022-07-02T14:56:03Z</time>
      </trkpt>
      <trkpt lat="43.59132" lon="3.94798">
        <ele>11.01</ele>
        <time>2022-07-02T14:56:04Z</time>
      </trkpt>
      <trkpt lat="43.59091" lon="3.94793">
        <ele>11.14</ele>
        <time>2022-07-02T14:56:12Z</time>
      </trkpt>
      <trkpt lat="43.59065" lon="3.94793">
        <ele>10.73</ele>
        <time>2022-07-02T14:56:17Z</time>
      </trkpt>
      <trkpt lat="43.59046" lon="3.94799">
        <ele>10.45</ele>
        <time>2022-07-02T14:56:21Z</time>
      </trkpt>
      <trkpt lat="43.59042" lon="3.94803">
        <ele>10.59</ele>
        <time>2022-07-02T14:56:22Z</time>
      </trkpt>
      <trkpt lat="43.59038" lon="3.94807">
        <ele>10.6</ele>
        <time>2022-07-02T14:56:23Z</time>
      </trkpt>
      <trkpt lat="43.59026" lon="3.9482">
        <ele>11.02</ele>
        <time>2022-07-02T14:56:26Z</time>
      </trkpt>
      <trkpt lat="43.58996" lon="3.94872">
        <ele>10.55</ele>
        <time>2022-07-02T14:56:36Z</time>
      </trkpt>
      <trkpt lat="43.58968" lon="3.9491">
        <ele>10.4</ele>
        <time>2022-07-02T14:56:44Z</time>
      </trkpt>
      <trkpt lat="43.5896" lon="3.94916">
        <ele>10.37</ele>
        <time>2022-07-02T14:56:46Z</time>
      </trkpt>
      <trkpt lat="43.58943" lon="3.94928">
        <ele>10.44</ele>
        <time>2022-07-02T14:56:50Z</time>
      </trkpt>
      <trkpt lat="43.58939" lon="3.94931">
        <ele>10.44</ele>
        <time>2022-07-02T14:56:51Z</time>
      </trkpt>
      <trkpt lat="43.58936" lon="3.94936">
        <ele>10.45</ele>
        <time>2022-07-02T14:56:52Z</time>
      </trkpt>
      <trkpt lat="43.58895" lon="3.94982">
        <ele>10.01</ele>
        <time>2022-07-02T14:57:03Z</time>
      </trkpt>
      <trkpt lat="43.58866" lon="3.95006">
        <ele>9.23</ele>
        <time>2022-07-02T14:57:10Z</time>
      </trkpt>
      <trkpt lat="43.5886" lon="3.95014">
        <ele>8.89</ele>
        <time>2022-07-02T14:57:12Z</time>
      </trkpt>
      <trkpt lat="43.58852" lon="3.95028">
        <ele>8.73</ele>
        <time>2022-07-02T14:57:15Z</time>
      </trkpt>
      <trkpt lat="43.58825" lon="3.95084">
        <ele>9.07</ele>
        <time>2022-07-02T14:57:26Z</time>
      </trkpt>
      <trkpt lat="43.588" lon="3.95136">
        <ele>9.47</ele>
        <time>2022-07-02T14:57:37Z</time>
      </trkpt>
      <trkpt lat="43.58779" lon="3.95182">
        <ele>9.65</ele>
        <time>2022-07-02T14:57:46Z</time>
      </trkpt>
      <trkpt lat="43.58757" lon="3.9523">
        <ele>9.98</ele>
        <time>2022-07-02T14:57:56Z</time>
      </trkpt>
      <trkpt lat="43.58745" lon="3.95242">
        <ele>9.36</ele>
        <time>2022-07-02T14:58:01Z</time>
      </trkpt>
      <trkpt lat="43.58742" lon="3.95241">
        <ele>9.3</ele>
        <time>2022-07-02T14:58:02Z</time>
      </trkpt>
      <trkpt lat="43.5874" lon="3.9524">
        <ele>9.24</ele>
        <time>2022-07-02T14:58:03Z</time>
      </trkpt>
      <trkpt lat="43.58737" lon="3.95237">
        <ele>9.18</ele>
        <time>2022-07-02T14:58:04Z</time>
      </trkpt>
      <trkpt lat="43.58735" lon="3.95234">
        <ele>9.18</ele>
        <time>2022-07-02T14:58:05Z</time>
      </trkpt>
      <trkpt lat="43.58732" lon="3.95231">
        <ele>9.2</ele>
        <time>2022-07-02T14:58:06Z</time>
      </trkpt>
      <trkpt lat="43.58706" lon="3.95198">
        <ele>8.78</ele>
        <time>2022-07-02T14:58:15Z</time>
      </trkpt>
      <trkpt lat="43.58662" lon="3.95143">
        <ele>8.29</ele>
        <time>2022-07-02T14:58:29Z</time>
      </trkpt>
      <trkpt lat="43.58621" lon="3.95112">
        <ele>8.46</ele>
        <time>2022-07-02T14:58:40Z</time>
      </trkpt>
      <trkpt lat="43.5858" lon="3.95101">
        <ele>8.68</ele>
        <time>2022-07-02T14:58:49Z</time>
      </trkpt>
      <trkpt lat="43.58536" lon="3.95111">
        <ele>8.05</ele>
        <time>2022-07-02T14:58:58Z</time>
      </trkpt>
      <trkpt lat="43.58494" lon="3.95125">
        <ele>7.36</ele>
        <time>2022-07-02T14:59:07Z</time>
      </trkpt>
      <trkpt lat="43.5846" lon="3.95137">
        <ele>6.96</ele>
        <time>2022-07-02T14:59:15Z</time>
      </trkpt>
      <trkpt lat="43.58422" lon="3.95148">
        <ele>7</ele>
        <time>2022-07-02T14:59:24Z</time>
      </trkpt>
      <trkpt lat="43.58379" lon="3.95149">
        <ele>7.4</ele>
        <time>2022-07-02T14:59:34Z</time>
      </trkpt>
      <trkpt lat="43.58332" lon="3.95136">
        <ele>7.17</ele>
        <time>2022-07-02T14:59:45Z</time>
      </trkpt>
      <trkpt lat="43.58329" lon="3.95134">
        <ele>7.1</ele>
        <time>2022-07-02T14:59:46Z</time>
      </trkpt>
      <trkpt lat="43.58325" lon="3.95131">
        <ele>7.05</ele>
        <time>2022-07-02T14:59:47Z</time>
      </trkpt>
      <trkpt lat="43.58277" lon="3.95097">
        <ele>6.74</ele>
        <time>2022-07-02T15:00:00Z</time>
      </trkpt>
      <trkpt lat="43.58232" lon="3.95053">
        <ele>6.82</ele>
        <time>2022-07-02T15:00:13Z</time>
      </trkpt>
      <trkpt lat="43.58194" lon="3.95018">
        <ele>6.91</ele>
        <time>2022-07-02T15:00:24Z</time>
      </trkpt>
      <trkpt lat="43.58147" lon="3.94972">
        <ele>6.58</ele>
        <time>2022-07-02T15:00:39Z</time>
      </trkpt>
      <trkpt lat="43.58098" lon="3.94925">
        <ele>6.59</ele>
        <time>2022-07-02T15:00:54Z</time>
      </trkpt>
      <trkpt lat="43.58061" lon="3.9489">
        <ele>7.02</ele>
        <time>2022-07-02T15:01:06Z</time>
      </trkpt>
      <trkpt lat="43.58028" lon="3.94855">
        <ele>6.8</ele>
        <time>2022-07-02T15:01:18Z</time>
      </trkpt>
      <trkpt lat="43.58004" lon="3.94824">
        <ele>7.2</ele>
        <time>2022-07-02T15:01:28Z</time>
      </trkpt>
      <trkpt lat="43.57991" lon="3.94798">
        <ele>7.7</ele>
        <time>2022-07-02T15:01:36Z</time>
      </trkpt>
      <trkpt lat="43.57987" lon="3.94793">
        <ele>7.81</ele>
        <time>2022-07-02T15:01:41Z</time>
      </trkpt>
      <trkpt lat="43.57986" lon="3.94797">
        <ele>8.22</ele>
        <time>2022-07-02T15:01:49Z</time>
      </trkpt>
      <trkpt lat="43.57986" lon="3.94802">
        <ele>8.25</ele>
        <time>2022-07-02T15:01:51Z</time>
      </trkpt>
      <trkpt lat="43.57985" lon="3.94809">
        <ele>8.33</ele>
        <time>2022-07-02T15:01:53Z</time>
      </trkpt>
      <trkpt lat="43.5798" lon="3.94826">
        <ele>8.37</ele>
        <time>2022-07-02T15:01:58Z</time>
      </trkpt>
      <trkpt lat="43.57978" lon="3.94826">
        <ele>8.37</ele>
        <time>2022-07-02T15:01:59Z</time>
      </trkpt>
      <trkpt lat="43.57976" lon="3.94824">
        <ele>8.32</ele>
        <time>2022-07-02T15:02:00Z</time>
      </trkpt>
      <trkpt lat="43.57975" lon="3.94821">
        <ele>8.32</ele>
        <time>2022-07-02T15:02:01Z</time>
      </trkpt>
      <trkpt lat="43.57975" lon="3.94817">
        <ele>8.32</ele>
        <time>2022-07-02T15:02:02Z</time>
      </trkpt>
      <trkpt lat="43.57976" lon="3.94812">
        <ele>8.27</ele>
        <time>2022-07-02T15:02:03Z</time>
      </trkpt>
      <trkpt lat="43.5798" lon="3.94762">
        <ele>7.48</ele>
        <time>2022-07-02T15:02:12Z</time>
      </trkpt>
      <trkpt lat="43.57984" lon="3.94701">
        <ele>7.44</ele>
        <time>2022-07-02T15:02:22Z</time>
      </trkpt>
      <trkpt lat="43.57987" lon="3.94663">
        <ele>7.06</ele>
        <time>2022-07-02T15:02:28Z</time>
      </trkpt>
      <trkpt lat="43.57989" lon="3.94658">
        <ele>7</ele>
        <time>2022-07-02T15:02:29Z</time>
      </trkpt>
      <trkpt lat="43.57991" lon="3.94653">
        <ele>6.96</ele>
        <time>2022-07-02T15:02:30Z</time>
      </trkpt>
      <trkpt lat="43.58009" lon="3.94619">
        <ele>7.05</ele>
        <time>2022-07-02T15:02:37Z</time>
      </trkpt>
      <trkpt lat="43.5801" lon="3.94614">
        <ele>7.09</ele>
        <time>2022-07-02T15:02:38Z</time>
      </trkpt>
      <trkpt lat="43.5801" lon="3.94608">
        <ele>7.11</ele>
        <time>2022-07-02T15:02:39Z</time>
      </trkpt>
      <trkpt lat="43.5801" lon="3.94602">
        <ele>7.14</ele>
        <time>2022-07-02T15:02:40Z</time>
      </trkpt>
      <trkpt lat="43.58009" lon="3.94597">
        <ele>7.18</ele>
        <time>2022-07-02T15:02:41Z</time>
      </trkpt>
      <trkpt lat="43.58008" lon="3.94592">
        <ele>7.23</ele>
        <time>2022-07-02T15:02:42Z</time>
      </trkpt>
      <trkpt lat="43.58006" lon="3.94587">
        <ele>7.25</ele>
        <time>2022-07-02T15:02:43Z</time>
      </trkpt>
      <trkpt lat="43.58004" lon="3.94583">
        <ele>7.27</ele>
        <time>2022-07-02T15:02:44Z</time>
      </trkpt>
      <trkpt lat="43.58" lon="3.9458">
        <ele>7.27</ele>
        <time>2022-07-02T15:02:45Z</time>
      </trkpt>
      <trkpt lat="43.57997" lon="3.94577">
        <ele>7.27</ele>
        <time>2022-07-02T15:02:46Z</time>
      </trkpt>
      <trkpt lat="43.57993" lon="3.94575">
        <ele>7.27</ele>
        <time>2022-07-02T15:02:47Z</time>
      </trkpt>
      <trkpt lat="43.57989" lon="3.94573">
        <ele>7.26</ele>
        <time>2022-07-02T15:02:48Z</time>
      </trkpt>
      <trkpt lat="43.57985" lon="3.94572">
        <ele>7.24</ele>
        <time>2022-07-02T15:02:49Z</time>
      </trkpt>
      <trkpt lat="43.57981" lon="3.94571">
        <ele>7.24</ele>
        <time>2022-07-02T15:02:50Z</time>
      </trkpt>
      <trkpt lat="43.57955" lon="3.94571">
        <ele>7.21</ele>
        <time>2022-07-02T15:02:57Z</time>
      </trkpt>
      <trkpt lat="43.57952" lon="3.9457">
        <ele>7.18</ele>
        <time>2022-07-02T15:02:58Z</time>
      </trkpt>
      <trkpt lat="43.5795" lon="3.94569">
        <ele>7.11</ele>
        <time>2022-07-02T15:02:59Z</time>
      </trkpt>
      <trkpt lat="43.57949" lon="3.94565">
        <ele>7.08</ele>
        <time>2022-07-02T15:03:00Z</time>
      </trkpt>
      <trkpt lat="43.57949" lon="3.94561">
        <ele>7.06</ele>
        <time>2022-07-02T15:03:01Z</time>
      </trkpt>
      <trkpt lat="43.57949" lon="3.94557">
        <ele>7.06</ele>
        <time>2022-07-02T15:03:02Z</time>
      </trkpt>
      <trkpt lat="43.57949" lon="3.94553">
        <ele>7.11</ele>
        <time>2022-07-02T15:03:03Z</time>
      </trkpt>
      <trkpt lat="43.57949" lon="3.94549">
        <ele>7.18</ele>
        <time>2022-07-02T15:03:04Z</time>
      </trkpt>
      <trkpt lat="43.57949" lon="3.94544">
        <ele>7.21</ele>
        <time>2022-07-02T15:03:05Z</time>
      </trkpt>
      <trkpt lat="43.57947" lon="3.9454">
        <ele>7.21</ele>
        <time>2022-07-02T15:03:06Z</time>
      </trkpt>
      <trkpt lat="43.57945" lon="3.94536">
        <ele>7.21</ele>
        <time>2022-07-02T15:03:07Z</time>
      </trkpt>
      <trkpt lat="43.57943" lon="3.94532">
        <ele>7.21</ele>
        <time>2022-07-02T15:03:08Z</time>
      </trkpt>
      <trkpt lat="43.57926" lon="3.94518">
        <ele>7.13</ele>
        <time>2022-07-02T15:03:13Z</time>
      </trkpt>
      <trkpt lat="43.57929" lon="3.945">
        <ele>7.2</ele>
        <time>2022-07-02T15:03:16Z</time>
      </trkpt>
      <trkpt lat="43.5793" lon="3.94483">
        <ele>7.19</ele>
        <time>2022-07-02T15:03:19Z</time>
      </trkpt>
      <trkpt lat="43.57933" lon="3.94465">
        <ele>7.03</ele>
        <time>2022-07-02T15:03:22Z</time>
      </trkpt>
      <trkpt lat="43.57934" lon="3.94459">
        <ele>6.96</ele>
        <time>2022-07-02T15:03:23Z</time>
      </trkpt>
      <trkpt lat="43.57936" lon="3.94453">
        <ele>6.89</ele>
        <time>2022-07-02T15:03:24Z</time>
      </trkpt>
      <trkpt lat="43.57938" lon="3.94447">
        <ele>6.88</ele>
        <time>2022-07-02T15:03:25Z</time>
      </trkpt>
      <trkpt lat="43.57941" lon="3.94442">
        <ele>6.87</ele>
        <time>2022-07-02T15:03:26Z</time>
      </trkpt>
      <trkpt lat="43.57945" lon="3.94437">
        <ele>6.86</ele>
        <time>2022-07-02T15:03:27Z</time>
      </trkpt>
      <trkpt lat="43.57947" lon="3.94432">
        <ele>6.86</ele>
        <time>2022-07-02T15:03:28Z</time>
      </trkpt>
      <trkpt lat="43.57949" lon="3.94425">
        <ele>6.84</ele>
        <time>2022-07-02T15:03:29Z</time>
      </trkpt>
      <trkpt lat="43.5795" lon="3.94419">
        <ele>6.81</ele>
        <time>2022-07-02T15:03:30Z</time>
      </trkpt>
      <trkpt lat="43.5795" lon="3.94412">
        <ele>6.74</ele>
        <time>2022-07-02T15:03:31Z</time>
      </trkpt>
      <trkpt lat="43.5795" lon="3.94405">
        <ele>6.68</ele>
        <time>2022-07-02T15:03:32Z</time>
      </trkpt>
      <trkpt lat="43.57949" lon="3.94399">
        <ele>6.64</ele>
        <time>2022-07-02T15:03:33Z</time>
      </trkpt>
      <trkpt lat="43.5794" lon="3.9433">
        <ele>6.42</ele>
        <time>2022-07-02T15:03:44Z</time>
      </trkpt>
      <trkpt lat="43.57929" lon="3.9426">
        <ele>6.87</ele>
        <time>2022-07-02T15:03:56Z</time>
      </trkpt>
      <trkpt lat="43.57918" lon="3.94218">
        <ele>7.3</ele>
        <time>2022-07-02T15:04:05Z</time>
      </trkpt>
      <trkpt lat="43.5792" lon="3.94215">
        <ele>7.24</ele>
        <time>2022-07-02T15:04:06Z</time>
      </trkpt>
      <trkpt lat="43.5792" lon="3.94211">
        <ele>7.21</ele>
        <time>2022-07-02T15:04:07Z</time>
      </trkpt>
      <trkpt lat="43.57913" lon="3.94182">
        <ele>7.17</ele>
        <time>2022-07-02T15:04:13Z</time>
      </trkpt>
      <trkpt lat="43.57909" lon="3.94155">
        <ele>7.08</ele>
        <time>2022-07-02T15:04:18Z</time>
      </trkpt>
      <trkpt lat="43.57903" lon="3.94122">
        <ele>7.31</ele>
        <time>2022-07-02T15:04:24Z</time>
      </trkpt>
      <trkpt lat="43.57899" lon="3.94093">
        <ele>7.85</ele>
        <time>2022-07-02T15:04:30Z</time>
      </trkpt>
      <trkpt lat="43.57896" lon="3.94068">
        <ele>8.52</ele>
        <time>2022-07-02T15:04:36Z</time>
      </trkpt>
      <trkpt lat="43.5789" lon="3.94039">
        <ele>9.53</ele>
        <time>2022-07-02T15:04:44Z</time>
      </trkpt>
      <trkpt lat="43.57888" lon="3.94015">
        <ele>10.37</ele>
        <time>2022-07-02T15:04:52Z</time>
      </trkpt>
      <trkpt lat="43.57882" lon="3.94002">
        <ele>11.11</ele>
        <time>2022-07-02T15:04:58Z</time>
      </trkpt>
      <trkpt lat="43.57878" lon="3.93998">
        <ele>11.04</ele>
        <time>2022-07-02T15:05:00Z</time>
      </trkpt>
      <trkpt lat="43.57878" lon="3.93994">
        <ele>10.99</ele>
        <time>2022-07-02T15:05:01Z</time>
      </trkpt>
      <trkpt lat="43.57879" lon="3.93991">
        <ele>10.96</ele>
        <time>2022-07-02T15:05:02Z</time>
      </trkpt>
      <trkpt lat="43.5788" lon="3.93987">
        <ele>10.95</ele>
        <time>2022-07-02T15:05:03Z</time>
      </trkpt>
      <trkpt lat="43.57881" lon="3.93985">
        <ele>11</ele>
        <time>2022-07-02T15:05:04Z</time>
      </trkpt>
      <trkpt lat="43.57882" lon="3.93981">
        <ele>11.17</ele>
        <time>2022-07-02T15:05:05Z</time>
      </trkpt>
      <trkpt lat="43.57885" lon="3.93953">
        <ele>12.11</ele>
        <time>2022-07-02T15:05:13Z</time>
      </trkpt>
      <trkpt lat="43.57879" lon="3.9391">
        <ele>12.68</ele>
        <time>2022-07-02T15:05:25Z</time>
      </trkpt>
      <trkpt lat="43.57874" lon="3.93878">
        <ele>13.05</ele>
        <time>2022-07-02T15:05:33Z</time>
      </trkpt>
      <trkpt lat="43.57867" lon="3.93847">
        <ele>12.97</ele>
        <time>2022-07-02T15:05:41Z</time>
      </trkpt>
      <trkpt lat="43.57856" lon="3.93806">
        <ele>12.92</ele>
        <time>2022-07-02T15:05:50Z</time>
      </trkpt>
      <trkpt lat="43.57845" lon="3.93764">
        <ele>11.77</ele>
        <time>2022-07-02T15:05:58Z</time>
      </trkpt>
      <trkpt lat="43.57835" lon="3.93719">
        <ele>11.01</ele>
        <time>2022-07-02T15:06:07Z</time>
      </trkpt>
      <trkpt lat="43.57827" lon="3.9369">
        <ele>10.96</ele>
        <time>2022-07-02T15:06:14Z</time>
      </trkpt>
      <trkpt lat="43.57811" lon="3.93651">
        <ele>11.63</ele>
        <time>2022-07-02T15:06:24Z</time>
      </trkpt>
      <trkpt lat="43.5779" lon="3.93609">
        <ele>11.81</ele>
        <time>2022-07-02T15:06:33Z</time>
      </trkpt>
      <trkpt lat="43.57786" lon="3.93606">
        <ele>11.76</ele>
        <time>2022-07-02T15:06:34Z</time>
      </trkpt>
      <trkpt lat="43.57783" lon="3.93603">
        <ele>11.69</ele>
        <time>2022-07-02T15:06:35Z</time>
      </trkpt>
      <trkpt lat="43.5778" lon="3.93599">
        <ele>11.64</ele>
        <time>2022-07-02T15:06:36Z</time>
      </trkpt>
      <trkpt lat="43.57777" lon="3.93597">
        <ele>11.58</ele>
        <time>2022-07-02T15:06:37Z</time>
      </trkpt>
      <trkpt lat="43.57774" lon="3.93595">
        <ele>11.52</ele>
        <time>2022-07-02T15:06:38Z</time>
      </trkpt>
      <trkpt lat="43.57764" lon="3.93588">
        <ele>11.45</ele>
        <time>2022-07-02T15:06:44Z</time>
      </trkpt>
      <trkpt lat="43.57754" lon="3.9358">
        <ele>11.87</ele>
        <time>2022-07-02T15:06:48Z</time>
      </trkpt>
      <trkpt lat="43.57753" lon="3.93576">
        <ele>11.92</ele>
        <time>2022-07-02T15:06:49Z</time>
      </trkpt>
      <trkpt lat="43.57754" lon="3.93571">
        <ele>11.92</ele>
        <time>2022-07-02T15:06:50Z</time>
      </trkpt>
      <trkpt lat="43.57754" lon="3.93566">
        <ele>11.86</ele>
        <time>2022-07-02T15:06:51Z</time>
      </trkpt>
      <trkpt lat="43.57752" lon="3.93561">
        <ele>11.8</ele>
        <time>2022-07-02T15:06:52Z</time>
      </trkpt>
      <trkpt lat="43.5775" lon="3.93557">
        <ele>11.77</ele>
        <time>2022-07-02T15:06:53Z</time>
      </trkpt>
      <trkpt lat="43.57747" lon="3.93553">
        <ele>11.75</ele>
        <time>2022-07-02T15:06:54Z</time>
      </trkpt>
      <trkpt lat="43.57739" lon="3.93526">
        <ele>11.83</ele>
        <time>2022-07-02T15:07:00Z</time>
      </trkpt>
      <trkpt lat="43.57741" lon="3.93505">
        <ele>12.13</ele>
        <time>2022-07-02T15:07:06Z</time>
      </trkpt>
      <trkpt lat="43.57741" lon="3.93503">
        <ele>12.5</ele>
        <time>2022-07-02T15:07:12Z</time>
      </trkpt>
      <trkpt lat="43.57742" lon="3.93496">
        <ele>12.63</ele>
        <time>2022-07-02T15:07:17Z</time>
      </trkpt>
      <trkpt lat="43.57742" lon="3.93495">
        <ele>12.63</ele>
        <time>2022-07-02T15:07:18Z</time>
      </trkpt>
      <trkpt lat="43.57742" lon="3.93493">
        <ele>12.61</ele>
        <time>2022-07-02T15:07:19Z</time>
      </trkpt>
      <trkpt lat="43.57742" lon="3.93491">
        <ele>12.6</ele>
        <time>2022-07-02T15:07:20Z</time>
      </trkpt>
      <trkpt lat="43.57741" lon="3.93489">
        <ele>12.6</ele>
        <time>2022-07-02T15:07:21Z</time>
      </trkpt>
      <trkpt lat="43.57738" lon="3.93466">
        <ele>12.3</ele>
        <time>2022-07-02T15:07:29Z</time>
      </trkpt>
      <trkpt lat="43.57733" lon="3.9344">
        <ele>12.26</ele>
        <time>2022-07-02T15:07:36Z</time>
      </trkpt>
      <trkpt lat="43.57726" lon="3.93409">
        <ele>12.03</ele>
        <time>2022-07-02T15:07:43Z</time>
      </trkpt>
      <trkpt lat="43.57714" lon="3.93367">
        <ele>11.78</ele>
        <time>2022-07-02T15:07:52Z</time>
      </trkpt>
      <trkpt lat="43.57703" lon="3.9334">
        <ele>11.84</ele>
        <time>2022-07-02T15:07:59Z</time>
      </trkpt>
      <trkpt lat="43.57704" lon="3.93336">
        <ele>11.81</ele>
        <time>2022-07-02T15:08:00Z</time>
      </trkpt>
      <trkpt lat="43.57706" lon="3.93334">
        <ele>11.79</ele>
        <time>2022-07-02T15:08:01Z</time>
      </trkpt>
      <trkpt lat="43.57708" lon="3.93332">
        <ele>11.78</ele>
        <time>2022-07-02T15:08:02Z</time>
      </trkpt>
      <trkpt lat="43.57711" lon="3.9333">
        <ele>11.78</ele>
        <time>2022-07-02T15:08:03Z</time>
      </trkpt>
      <trkpt lat="43.57713" lon="3.93327">
        <ele>11.83</ele>
        <time>2022-07-02T15:08:04Z</time>
      </trkpt>
      <trkpt lat="43.57718" lon="3.93308">
        <ele>12.43</ele>
        <time>2022-07-02T15:08:08Z</time>
      </trkpt>
      <trkpt lat="43.57717" lon="3.93303">
        <ele>12.48</ele>
        <time>2022-07-02T15:08:09Z</time>
      </trkpt>
      <trkpt lat="43.57715" lon="3.93297">
        <ele>12.5</ele>
        <time>2022-07-02T15:08:10Z</time>
      </trkpt>
      <trkpt lat="43.57713" lon="3.93293">
        <ele>12.49</ele>
        <time>2022-07-02T15:08:11Z</time>
      </trkpt>
      <trkpt lat="43.5771" lon="3.93289">
        <ele>12.4</ele>
        <time>2022-07-02T15:08:12Z</time>
      </trkpt>
      <trkpt lat="43.57707" lon="3.93284">
        <ele>12.25</ele>
        <time>2022-07-02T15:08:13Z</time>
      </trkpt>
      <trkpt lat="43.57705" lon="3.93279">
        <ele>12.1</ele>
        <time>2022-07-02T15:08:14Z</time>
      </trkpt>
      <trkpt lat="43.57704" lon="3.93274">
        <ele>11.97</ele>
        <time>2022-07-02T15:08:15Z</time>
      </trkpt>
      <trkpt lat="43.57702" lon="3.93268">
        <ele>11.86</ele>
        <time>2022-07-02T15:08:16Z</time>
      </trkpt>
      <trkpt lat="43.57693" lon="3.93207">
        <ele>11.62</ele>
        <time>2022-07-02T15:08:27Z</time>
      </trkpt>
      <trkpt lat="43.57685" lon="3.93122">
        <ele>12.02</ele>
        <time>2022-07-02T15:08:42Z</time>
      </trkpt>
      <trkpt lat="43.57681" lon="3.9303">
        <ele>12.11</ele>
        <time>2022-07-02T15:08:59Z</time>
      </trkpt>
      <trkpt lat="43.57676" lon="3.92945">
        <ele>12.58</ele>
        <time>2022-07-02T15:09:16Z</time>
      </trkpt>
      <trkpt lat="43.57666" lon="3.92881">
        <ele>12.46</ele>
        <time>2022-07-02T15:09:29Z</time>
      </trkpt>
      <trkpt lat="43.57652" lon="3.92811">
        <ele>12.16</ele>
        <time>2022-07-02T15:09:44Z</time>
      </trkpt>
      <trkpt lat="43.57633" lon="3.92743">
        <ele>12.34</ele>
        <time>2022-07-02T15:09:59Z</time>
      </trkpt>
      <trkpt lat="43.57614" lon="3.9268">
        <ele>12.25</ele>
        <time>2022-07-02T15:10:13Z</time>
      </trkpt>
      <trkpt lat="43.57589" lon="3.92597">
        <ele>12.33</ele>
        <time>2022-07-02T15:10:31Z</time>
      </trkpt>
      <trkpt lat="43.57574" lon="3.92558">
        <ele>12.32</ele>
        <time>2022-07-02T15:10:40Z</time>
      </trkpt>
      <trkpt lat="43.57556" lon="3.92501">
        <ele>11.81</ele>
        <time>2022-07-02T15:10:52Z</time>
      </trkpt>
      <trkpt lat="43.57534" lon="3.92437">
        <ele>12.68</ele>
        <time>2022-07-02T15:11:08Z</time>
      </trkpt>
      <trkpt lat="43.57531" lon="3.92437">
        <ele>12.68</ele>
        <time>2022-07-02T15:11:09Z</time>
      </trkpt>
      <trkpt lat="43.57527" lon="3.92438">
        <ele>12.68</ele>
        <time>2022-07-02T15:11:10Z</time>
      </trkpt>
      <trkpt lat="43.57524" lon="3.9244">
        <ele>12.69</ele>
        <time>2022-07-02T15:11:11Z</time>
      </trkpt>
      <trkpt lat="43.57521" lon="3.92443">
        <ele>12.72</ele>
        <time>2022-07-02T15:11:12Z</time>
      </trkpt>
      <trkpt lat="43.57519" lon="3.92446">
        <ele>12.76</ele>
        <time>2022-07-02T15:11:13Z</time>
      </trkpt>
      <trkpt lat="43.57516" lon="3.9245">
        <ele>12.78</ele>
        <time>2022-07-02T15:11:14Z</time>
      </trkpt>
      <trkpt lat="43.57513" lon="3.92453">
        <ele>12.81</ele>
        <time>2022-07-02T15:11:15Z</time>
      </trkpt>
      <trkpt lat="43.5751" lon="3.92453">
        <ele>12.82</ele>
        <time>2022-07-02T15:11:16Z</time>
      </trkpt>
      <trkpt lat="43.57506" lon="3.92454">
        <ele>12.88</ele>
        <time>2022-07-02T15:11:17Z</time>
      </trkpt>
      <trkpt lat="43.57505" lon="3.92451">
        <ele>12.91</ele>
        <time>2022-07-02T15:11:18Z</time>
      </trkpt>
      <trkpt lat="43.57505" lon="3.92448">
        <ele>12.96</ele>
        <time>2022-07-02T15:11:19Z</time>
      </trkpt>
      <trkpt lat="43.57506" lon="3.92445">
        <ele>13.06</ele>
        <time>2022-07-02T15:11:20Z</time>
      </trkpt>
      <trkpt lat="43.57508" lon="3.9244">
        <ele>13.21</ele>
        <time>2022-07-02T15:11:21Z</time>
      </trkpt>
      <trkpt lat="43.57509" lon="3.92435">
        <ele>13.41</ele>
        <time>2022-07-02T15:11:22Z</time>
      </trkpt>
      <trkpt lat="43.5751" lon="3.9243">
        <ele>13.62</ele>
        <time>2022-07-02T15:11:23Z</time>
      </trkpt>
      <trkpt lat="43.5751" lon="3.92425">
        <ele>13.8</ele>
        <time>2022-07-02T15:11:24Z</time>
      </trkpt>
      <trkpt lat="43.5751" lon="3.9242">
        <ele>13.93</ele>
        <time>2022-07-02T15:11:25Z</time>
      </trkpt>
      <trkpt lat="43.57509" lon="3.92415">
        <ele>14.02</ele>
        <time>2022-07-02T15:11:26Z</time>
      </trkpt>
      <trkpt lat="43.57508" lon="3.9241">
        <ele>14.11</ele>
        <time>2022-07-02T15:11:27Z</time>
      </trkpt>
      <trkpt lat="43.57499" lon="3.92372">
        <ele>14.65</ele>
        <time>2022-07-02T15:11:37Z</time>
      </trkpt>
      <trkpt lat="43.57484" lon="3.92335">
        <ele>16.42</ele>
        <time>2022-07-02T15:11:50Z</time>
      </trkpt>
      <trkpt lat="43.57469" lon="3.92298">
        <ele>18.2</ele>
        <time>2022-07-02T15:12:04Z</time>
      </trkpt>
      <trkpt lat="43.57456" lon="3.92274">
        <ele>18.9</ele>
        <time>2022-07-02T15:12:14Z</time>
      </trkpt>
      <trkpt lat="43.57442" lon="3.92251">
        <ele>18.95</ele>
        <time>2022-07-02T15:12:23Z</time>
      </trkpt>
      <trkpt lat="43.57426" lon="3.92222">
        <ele>18.33</ele>
        <time>2022-07-02T15:12:34Z</time>
      </trkpt>
      <trkpt lat="43.57409" lon="3.92191">
        <ele>17.74</ele>
        <time>2022-07-02T15:12:41Z</time>
      </trkpt>
      <trkpt lat="43.57384" lon="3.92141">
        <ele>15.43</ele>
        <time>2022-07-02T15:12:48Z</time>
      </trkpt>
      <trkpt lat="43.57362" lon="3.92097">
        <ele>12.39</ele>
        <time>2022-07-02T15:12:53Z</time>
      </trkpt>
      <trkpt lat="43.57345" lon="3.92059">
        <ele>9.38</ele>
        <time>2022-07-02T15:12:57Z</time>
      </trkpt>
      <trkpt lat="43.57315" lon="3.91997">
        <ele>6.3</ele>
        <time>2022-07-02T15:13:05Z</time>
      </trkpt>
      <trkpt lat="43.57288" lon="3.91944">
        <ele>7.34</ele>
        <time>2022-07-02T15:13:14Z</time>
      </trkpt>
      <trkpt lat="43.57285" lon="3.9194">
        <ele>7.53</ele>
        <time>2022-07-02T15:13:15Z</time>
      </trkpt>
      <trkpt lat="43.57281" lon="3.91937">
        <ele>7.69</ele>
        <time>2022-07-02T15:13:16Z</time>
      </trkpt>
      <trkpt lat="43.57266" lon="3.9191">
        <ele>8.68</ele>
        <time>2022-07-02T15:13:23Z</time>
      </trkpt>
      <trkpt lat="43.57246" lon="3.91863">
        <ele>9.24</ele>
        <time>2022-07-02T15:13:32Z</time>
      </trkpt>
      <trkpt lat="43.57242" lon="3.9186">
        <ele>9.23</ele>
        <time>2022-07-02T15:13:33Z</time>
      </trkpt>
      <trkpt lat="43.57234" lon="3.91854">
        <ele>9.17</ele>
        <time>2022-07-02T15:13:35Z</time>
      </trkpt>
      <trkpt lat="43.57231" lon="3.91849">
        <ele>9.06</ele>
        <time>2022-07-02T15:13:36Z</time>
      </trkpt>
      <trkpt lat="43.57221" lon="3.91812">
        <ele>8.24</ele>
        <time>2022-07-02T15:13:41Z</time>
      </trkpt>
      <trkpt lat="43.57206" lon="3.91764">
        <ele>7.4</ele>
        <time>2022-07-02T15:13:48Z</time>
      </trkpt>
      <trkpt lat="43.57205" lon="3.91758">
        <ele>7.56</ele>
        <time>2022-07-02T15:13:49Z</time>
      </trkpt>
      <trkpt lat="43.57201" lon="3.9174">
        <ele>7.32</ele>
        <time>2022-07-02T15:13:52Z</time>
      </trkpt>
      <trkpt lat="43.57198" lon="3.91735">
        <ele>7.13</ele>
        <time>2022-07-02T15:13:53Z</time>
      </trkpt>
      <trkpt lat="43.57182" lon="3.91731">
        <ele>6.93</ele>
        <time>2022-07-02T15:13:56Z</time>
      </trkpt>
      <trkpt lat="43.57177" lon="3.91731">
        <ele>6.93</ele>
        <time>2022-07-02T15:13:57Z</time>
      </trkpt>
      <trkpt lat="43.57134" lon="3.91734">
        <ele>6.65</ele>
        <time>2022-07-02T15:14:06Z</time>
      </trkpt>
      <trkpt lat="43.57086" lon="3.91736">
        <ele>6.74</ele>
        <time>2022-07-02T15:14:17Z</time>
      </trkpt>
      <trkpt lat="43.57042" lon="3.91738">
        <ele>7.4</ele>
        <time>2022-07-02T15:14:28Z</time>
      </trkpt>
      <trkpt lat="43.57006" lon="3.91741">
        <ele>6.86</ele>
        <time>2022-07-02T15:14:38Z</time>
      </trkpt>
      <trkpt lat="43.56987" lon="3.91742">
        <ele>6.92</ele>
        <time>2022-07-02T15:14:45Z</time>
      </trkpt>
      <trkpt lat="43.56985" lon="3.9174">
        <ele>6.85</ele>
        <time>2022-07-02T15:14:46Z</time>
      </trkpt>
      <trkpt lat="43.56986" lon="3.91737">
        <ele>6.82</ele>
        <time>2022-07-02T15:14:47Z</time>
      </trkpt>
      <trkpt lat="43.56987" lon="3.91735">
        <ele>6.8</ele>
        <time>2022-07-02T15:14:48Z</time>
      </trkpt>
      <trkpt lat="43.56989" lon="3.91732">
        <ele>6.79</ele>
        <time>2022-07-02T15:14:49Z</time>
      </trkpt>
      <trkpt lat="43.56991" lon="3.91728">
        <ele>6.86</ele>
        <time>2022-07-02T15:14:50Z</time>
      </trkpt>
      <trkpt lat="43.56994" lon="3.91725">
        <ele>6.91</ele>
        <time>2022-07-02T15:14:52Z</time>
      </trkpt>
      <trkpt lat="43.57002" lon="3.91701">
        <ele>6.95</ele>
        <time>2022-07-02T15:14:58Z</time>
      </trkpt>
      <trkpt lat="43.57007" lon="3.91689">
        <ele>7</ele>
        <time>2022-07-02T15:15:01Z</time>
      </trkpt>
      <trkpt lat="43.57011" lon="3.91687">
        <ele>6.97</ele>
        <time>2022-07-02T15:15:02Z</time>
      </trkpt>
      <trkpt lat="43.57016" lon="3.91686">
        <ele>6.94</ele>
        <time>2022-07-02T15:15:03Z</time>
      </trkpt>
      <trkpt lat="43.57021" lon="3.91686">
        <ele>6.86</ele>
        <time>2022-07-02T15:15:04Z</time>
      </trkpt>
      <trkpt lat="43.57025" lon="3.91686">
        <ele>6.83</ele>
        <time>2022-07-02T15:15:05Z</time>
      </trkpt>
      <trkpt lat="43.57052" lon="3.9169">
        <ele>7.29</ele>
        <time>2022-07-02T15:15:11Z</time>
      </trkpt>
      <trkpt lat="43.57057" lon="3.91689">
        <ele>7.37</ele>
        <time>2022-07-02T15:15:12Z</time>
      </trkpt>
      <trkpt lat="43.57061" lon="3.91689">
        <ele>7.37</ele>
        <time>2022-07-02T15:15:13Z</time>
      </trkpt>
      <trkpt lat="43.57087" lon="3.91682">
        <ele>7.28</ele>
        <time>2022-07-02T15:15:21Z</time>
      </trkpt>
      <trkpt lat="43.57097" lon="3.91653">
        <ele>7.33</ele>
        <time>2022-07-02T15:15:28Z</time>
      </trkpt>
      <trkpt lat="43.57104" lon="3.91616">
        <ele>7.07</ele>
        <time>2022-07-02T15:15:36Z</time>
      </trkpt>
      <trkpt lat="43.57097" lon="3.91586">
        <ele>7.15</ele>
        <time>2022-07-02T15:15:42Z</time>
      </trkpt>
      <trkpt lat="43.5709" lon="3.91559">
        <ele>7.07</ele>
        <time>2022-07-02T15:15:49Z</time>
      </trkpt>
      <trkpt lat="43.5709" lon="3.91556">
        <ele>7.06</ele>
        <time>2022-07-02T15:15:50Z</time>
      </trkpt>
      <trkpt lat="43.57091" lon="3.91555">
        <ele>7.25</ele>
        <time>2022-07-02T15:15:56Z</time>
      </trkpt>
      <trkpt lat="43.57092" lon="3.91553">
        <ele>7.31</ele>
        <time>2022-07-02T15:16:04Z</time>
      </trkpt>
      <trkpt lat="43.57096" lon="3.91556">
        <ele>7.33</ele>
        <time>2022-07-02T15:16:13Z</time>
      </trkpt>
      <trkpt lat="43.571" lon="3.9156">
        <ele>7.31</ele>
        <time>2022-07-02T15:16:16Z</time>
      </trkpt>
      <trkpt lat="43.5711" lon="3.9156">
        <ele>7.29</ele>
        <time>2022-07-02T15:16:21Z</time>
      </trkpt>
      <trkpt lat="43.57117" lon="3.91548">
        <ele>7.08</ele>
        <time>2022-07-02T15:16:29Z</time>
      </trkpt>
      <trkpt lat="43.57116" lon="3.91547">
        <ele>6.94</ele>
        <time>2022-07-02T15:16:37Z</time>
      </trkpt>
    </trkseg>
  </trk>
</gpx>